<?xml version="1.0" encoding="UTF-8" standalone="no" ?>
<gpx xmlns="http://www.topografix.com/GPX/1/1" xmlns:xsi="http://www.w3.org/2001/XMLSchema-instance" xsi:schemaLocation="http://www.topografix.com/GPX/1/1 http://www.topografix.com/GPX/1/1/gpx.xsd" version="1.1" creator="VisuGPX - https://www.visugpx.com">
  <metadata>
    <name>quevaucamps enéo</name>
    <desc><![CDATA[Organisation ENEO MESLIN. 7 novembre 2016
Temps nuageux ,belle randonnée
]]></desc>
  </metadata>
  <trk>
    <name><![CDATA[2016-11-07 16:51:36]]></name>
    <trkseg>
      <trkpt lat="50.52921" lon="3.692">
        <ele>64.07</ele>
        <time>2016-11-07T13:22:22Z</time>
      </trkpt>
      <trkpt lat="50.5292" lon="3.69199">
        <ele>64.07</ele>
        <time>2016-11-07T13:22:23Z</time>
      </trkpt>
      <trkpt lat="50.52919" lon="3.69197">
        <ele>63.58</ele>
        <time>2016-11-07T13:22:33Z</time>
      </trkpt>
      <trkpt lat="50.5292" lon="3.69201">
        <ele>63.1</ele>
        <time>2016-11-07T13:22:49Z</time>
      </trkpt>
      <trkpt lat="50.52923" lon="3.692">
        <ele>64.55</ele>
        <time>2016-11-07T13:22:58Z</time>
      </trkpt>
      <trkpt lat="50.52937" lon="3.69201">
        <ele>64.07</ele>
        <time>2016-11-07T13:23:11Z</time>
      </trkpt>
      <trkpt lat="50.5294" lon="3.69201">
        <ele>64.07</ele>
        <time>2016-11-07T13:23:24Z</time>
      </trkpt>
      <trkpt lat="50.52943" lon="3.69199">
        <ele>64.07</ele>
        <time>2016-11-07T13:23:38Z</time>
      </trkpt>
      <trkpt lat="50.52944" lon="3.69198">
        <ele>64.07</ele>
        <time>2016-11-07T13:23:49Z</time>
      </trkpt>
      <trkpt lat="50.52943" lon="3.69197">
        <ele>64.07</ele>
        <time>2016-11-07T13:24:11Z</time>
      </trkpt>
      <trkpt lat="50.52943" lon="3.69196">
        <ele>64.07</ele>
        <time>2016-11-07T13:24:37Z</time>
      </trkpt>
      <trkpt lat="50.52944" lon="3.69197">
        <ele>64.07</ele>
        <time>2016-11-07T13:24:59Z</time>
      </trkpt>
      <trkpt lat="50.52943" lon="3.69196">
        <ele>63.58</ele>
        <time>2016-11-07T13:25:23Z</time>
      </trkpt>
      <trkpt lat="50.52943" lon="3.69195">
        <ele>63.58</ele>
        <time>2016-11-07T13:25:45Z</time>
      </trkpt>
      <trkpt lat="50.52943" lon="3.69193">
        <ele>62.62</ele>
        <time>2016-11-07T13:26:07Z</time>
      </trkpt>
      <trkpt lat="50.52943" lon="3.69191">
        <ele>62.62</ele>
        <time>2016-11-07T13:26:31Z</time>
      </trkpt>
      <trkpt lat="50.52943" lon="3.69193">
        <ele>62.14</ele>
        <time>2016-11-07T13:26:58Z</time>
      </trkpt>
      <trkpt lat="50.52945" lon="3.69192">
        <ele>62.14</ele>
        <time>2016-11-07T13:27:29Z</time>
      </trkpt>
      <trkpt lat="50.52943" lon="3.69189">
        <ele>62.14</ele>
        <time>2016-11-07T13:27:55Z</time>
      </trkpt>
      <trkpt lat="50.52945" lon="3.69193">
        <ele>62.14</ele>
        <time>2016-11-07T13:28:22Z</time>
      </trkpt>
      <trkpt lat="50.52946" lon="3.69193">
        <ele>62.14</ele>
        <time>2016-11-07T13:28:46Z</time>
      </trkpt>
      <trkpt lat="50.52946" lon="3.69195">
        <ele>61.66</ele>
        <time>2016-11-07T13:29:11Z</time>
      </trkpt>
      <trkpt lat="50.52946" lon="3.69192">
        <ele>61.66</ele>
        <time>2016-11-07T13:29:35Z</time>
      </trkpt>
      <trkpt lat="50.52945" lon="3.6919">
        <ele>61.66</ele>
        <time>2016-11-07T13:30:04Z</time>
      </trkpt>
      <trkpt lat="50.52947" lon="3.69189">
        <ele>61.66</ele>
        <time>2016-11-07T13:30:35Z</time>
      </trkpt>
      <trkpt lat="50.52948" lon="3.69192">
        <ele>61.66</ele>
        <time>2016-11-07T13:31:03Z</time>
      </trkpt>
      <trkpt lat="50.52952" lon="3.69192">
        <ele>61.66</ele>
        <time>2016-11-07T13:31:30Z</time>
      </trkpt>
      <trkpt lat="50.52957" lon="3.69195">
        <ele>61.66</ele>
        <time>2016-11-07T13:31:49Z</time>
      </trkpt>
      <trkpt lat="50.52958" lon="3.69195">
        <ele>61.66</ele>
        <time>2016-11-07T13:31:50Z</time>
      </trkpt>
      <trkpt lat="50.5297" lon="3.69197">
        <ele>61.18</ele>
        <time>2016-11-07T13:32:04Z</time>
      </trkpt>
      <trkpt lat="50.52988" lon="3.69215">
        <ele>61.18</ele>
        <time>2016-11-07T13:32:20Z</time>
      </trkpt>
      <trkpt lat="50.53002" lon="3.69213">
        <ele>61.18</ele>
        <time>2016-11-07T13:32:34Z</time>
      </trkpt>
      <trkpt lat="50.53011" lon="3.69216">
        <ele>61.18</ele>
        <time>2016-11-07T13:32:40Z</time>
      </trkpt>
      <trkpt lat="50.5302" lon="3.69211">
        <ele>61.18</ele>
        <time>2016-11-07T13:32:47Z</time>
      </trkpt>
      <trkpt lat="50.53023" lon="3.6921">
        <ele>61.18</ele>
        <time>2016-11-07T13:32:50Z</time>
      </trkpt>
      <trkpt lat="50.53039" lon="3.69204">
        <ele>61.18</ele>
        <time>2016-11-07T13:33:08Z</time>
      </trkpt>
      <trkpt lat="50.53049" lon="3.69202">
        <ele>61.18</ele>
        <time>2016-11-07T13:33:15Z</time>
      </trkpt>
      <trkpt lat="50.53064" lon="3.6921">
        <ele>61.18</ele>
        <time>2016-11-07T13:33:29Z</time>
      </trkpt>
      <trkpt lat="50.53061" lon="3.69222">
        <ele>61.18</ele>
        <time>2016-11-07T13:33:41Z</time>
      </trkpt>
      <trkpt lat="50.53061" lon="3.69225">
        <ele>61.18</ele>
        <time>2016-11-07T13:33:43Z</time>
      </trkpt>
      <trkpt lat="50.53061" lon="3.69229">
        <ele>60.7</ele>
        <time>2016-11-07T13:33:45Z</time>
      </trkpt>
      <trkpt lat="50.5306" lon="3.69236">
        <ele>60.7</ele>
        <time>2016-11-07T13:33:49Z</time>
      </trkpt>
      <trkpt lat="50.53058" lon="3.69264">
        <ele>60.7</ele>
        <time>2016-11-07T13:34:03Z</time>
      </trkpt>
      <trkpt lat="50.53056" lon="3.69293">
        <ele>60.7</ele>
        <time>2016-11-07T13:34:20Z</time>
      </trkpt>
      <trkpt lat="50.53054" lon="3.69301">
        <ele>60.7</ele>
        <time>2016-11-07T13:34:24Z</time>
      </trkpt>
      <trkpt lat="50.53053" lon="3.69333">
        <ele>60.7</ele>
        <time>2016-11-07T13:34:41Z</time>
      </trkpt>
      <trkpt lat="50.53051" lon="3.69353">
        <ele>60.7</ele>
        <time>2016-11-07T13:34:55Z</time>
      </trkpt>
      <trkpt lat="50.53051" lon="3.69356">
        <ele>60.7</ele>
        <time>2016-11-07T13:34:58Z</time>
      </trkpt>
      <trkpt lat="50.53049" lon="3.69361">
        <ele>60.7</ele>
        <time>2016-11-07T13:35:00Z</time>
      </trkpt>
      <trkpt lat="50.53047" lon="3.69365">
        <ele>60.7</ele>
        <time>2016-11-07T13:35:02Z</time>
      </trkpt>
      <trkpt lat="50.53039" lon="3.69395">
        <ele>60.7</ele>
        <time>2016-11-07T13:35:20Z</time>
      </trkpt>
      <trkpt lat="50.5303" lon="3.69418">
        <ele>60.7</ele>
        <time>2016-11-07T13:35:34Z</time>
      </trkpt>
      <trkpt lat="50.53024" lon="3.6944">
        <ele>60.22</ele>
        <time>2016-11-07T13:35:49Z</time>
      </trkpt>
      <trkpt lat="50.53024" lon="3.69462">
        <ele>60.22</ele>
        <time>2016-11-07T13:36:02Z</time>
      </trkpt>
      <trkpt lat="50.53024" lon="3.69491">
        <ele>61.66</ele>
        <time>2016-11-07T13:36:15Z</time>
      </trkpt>
      <trkpt lat="50.53025" lon="3.69498">
        <ele>61.66</ele>
        <time>2016-11-07T13:36:18Z</time>
      </trkpt>
      <trkpt lat="50.53021" lon="3.69528">
        <ele>61.66</ele>
        <time>2016-11-07T13:36:35Z</time>
      </trkpt>
      <trkpt lat="50.53022" lon="3.69553">
        <ele>61.66</ele>
        <time>2016-11-07T13:36:50Z</time>
      </trkpt>
      <trkpt lat="50.53021" lon="3.69578">
        <ele>61.66</ele>
        <time>2016-11-07T13:37:05Z</time>
      </trkpt>
      <trkpt lat="50.53018" lon="3.69606">
        <ele>61.18</ele>
        <time>2016-11-07T13:37:19Z</time>
      </trkpt>
      <trkpt lat="50.53018" lon="3.69608">
        <ele>61.66</ele>
        <time>2016-11-07T13:37:20Z</time>
      </trkpt>
      <trkpt lat="50.53015" lon="3.6962">
        <ele>61.18</ele>
        <time>2016-11-07T13:37:27Z</time>
      </trkpt>
      <trkpt lat="50.53008" lon="3.6965">
        <ele>61.66</ele>
        <time>2016-11-07T13:37:44Z</time>
      </trkpt>
      <trkpt lat="50.53007" lon="3.69668">
        <ele>61.66</ele>
        <time>2016-11-07T13:37:53Z</time>
      </trkpt>
      <trkpt lat="50.53005" lon="3.69676">
        <ele>61.66</ele>
        <time>2016-11-07T13:37:57Z</time>
      </trkpt>
      <trkpt lat="50.53003" lon="3.69701">
        <ele>61.66</ele>
        <time>2016-11-07T13:38:12Z</time>
      </trkpt>
      <trkpt lat="50.53" lon="3.69729">
        <ele>61.66</ele>
        <time>2016-11-07T13:38:28Z</time>
      </trkpt>
      <trkpt lat="50.52996" lon="3.69761">
        <ele>62.14</ele>
        <time>2016-11-07T13:38:45Z</time>
      </trkpt>
      <trkpt lat="50.52992" lon="3.69796">
        <ele>62.14</ele>
        <time>2016-11-07T13:39:04Z</time>
      </trkpt>
      <trkpt lat="50.52988" lon="3.6983">
        <ele>61.66</ele>
        <time>2016-11-07T13:39:22Z</time>
      </trkpt>
      <trkpt lat="50.52986" lon="3.69843">
        <ele>61.66</ele>
        <time>2016-11-07T13:39:29Z</time>
      </trkpt>
      <trkpt lat="50.52981" lon="3.69873">
        <ele>61.66</ele>
        <time>2016-11-07T13:39:46Z</time>
      </trkpt>
      <trkpt lat="50.52976" lon="3.69904">
        <ele>61.66</ele>
        <time>2016-11-07T13:40:03Z</time>
      </trkpt>
      <trkpt lat="50.52972" lon="3.69934">
        <ele>61.66</ele>
        <time>2016-11-07T13:40:19Z</time>
      </trkpt>
      <trkpt lat="50.52968" lon="3.69959">
        <ele>61.66</ele>
        <time>2016-11-07T13:40:33Z</time>
      </trkpt>
      <trkpt lat="50.52967" lon="3.69963">
        <ele>61.66</ele>
        <time>2016-11-07T13:40:35Z</time>
      </trkpt>
      <trkpt lat="50.52967" lon="3.69968">
        <ele>61.66</ele>
        <time>2016-11-07T13:40:38Z</time>
      </trkpt>
      <trkpt lat="50.52963" lon="3.69998">
        <ele>61.66</ele>
        <time>2016-11-07T13:40:55Z</time>
      </trkpt>
      <trkpt lat="50.52961" lon="3.70018">
        <ele>61.66</ele>
        <time>2016-11-07T13:41:07Z</time>
      </trkpt>
      <trkpt lat="50.52953" lon="3.70025">
        <ele>61.66</ele>
        <time>2016-11-07T13:41:22Z</time>
      </trkpt>
      <trkpt lat="50.52954" lon="3.70039">
        <ele>61.66</ele>
        <time>2016-11-07T13:41:33Z</time>
      </trkpt>
      <trkpt lat="50.52953" lon="3.70072">
        <ele>61.66</ele>
        <time>2016-11-07T13:41:52Z</time>
      </trkpt>
      <trkpt lat="50.52948" lon="3.70107">
        <ele>61.66</ele>
        <time>2016-11-07T13:42:09Z</time>
      </trkpt>
      <trkpt lat="50.52944" lon="3.70138">
        <ele>61.66</ele>
        <time>2016-11-07T13:42:25Z</time>
      </trkpt>
      <trkpt lat="50.52943" lon="3.7015">
        <ele>60.7</ele>
        <time>2016-11-07T13:42:31Z</time>
      </trkpt>
      <trkpt lat="50.52937" lon="3.70185">
        <ele>60.7</ele>
        <time>2016-11-07T13:42:51Z</time>
      </trkpt>
      <trkpt lat="50.52935" lon="3.70216">
        <ele>60.7</ele>
        <time>2016-11-07T13:43:08Z</time>
      </trkpt>
      <trkpt lat="50.5293" lon="3.70249">
        <ele>60.7</ele>
        <time>2016-11-07T13:43:27Z</time>
      </trkpt>
      <trkpt lat="50.52926" lon="3.70283">
        <ele>60.7</ele>
        <time>2016-11-07T13:43:45Z</time>
      </trkpt>
      <trkpt lat="50.52921" lon="3.70321">
        <ele>60.22</ele>
        <time>2016-11-07T13:44:05Z</time>
      </trkpt>
      <trkpt lat="50.5292" lon="3.70346">
        <ele>59.74</ele>
        <time>2016-11-07T13:44:20Z</time>
      </trkpt>
      <trkpt lat="50.52919" lon="3.70372">
        <ele>60.22</ele>
        <time>2016-11-07T13:44:37Z</time>
      </trkpt>
      <trkpt lat="50.52917" lon="3.70391">
        <ele>60.22</ele>
        <time>2016-11-07T13:44:48Z</time>
      </trkpt>
      <trkpt lat="50.52915" lon="3.70412">
        <ele>59.74</ele>
        <time>2016-11-07T13:45:04Z</time>
      </trkpt>
      <trkpt lat="50.52914" lon="3.7043">
        <ele>59.74</ele>
        <time>2016-11-07T13:45:17Z</time>
      </trkpt>
      <trkpt lat="50.52919" lon="3.70451">
        <ele>59.74</ele>
        <time>2016-11-07T13:45:31Z</time>
      </trkpt>
      <trkpt lat="50.52922" lon="3.70477">
        <ele>59.26</ele>
        <time>2016-11-07T13:45:46Z</time>
      </trkpt>
      <trkpt lat="50.52923" lon="3.70507">
        <ele>59.26</ele>
        <time>2016-11-07T13:46:00Z</time>
      </trkpt>
      <trkpt lat="50.52928" lon="3.70531">
        <ele>59.26</ele>
        <time>2016-11-07T13:46:14Z</time>
      </trkpt>
      <trkpt lat="50.5293" lon="3.7056">
        <ele>59.26</ele>
        <time>2016-11-07T13:46:29Z</time>
      </trkpt>
      <trkpt lat="50.52936" lon="3.7059">
        <ele>59.26</ele>
        <time>2016-11-07T13:46:46Z</time>
      </trkpt>
      <trkpt lat="50.52938" lon="3.70617">
        <ele>59.26</ele>
        <time>2016-11-07T13:47:00Z</time>
      </trkpt>
      <trkpt lat="50.5294" lon="3.70638">
        <ele>59.26</ele>
        <time>2016-11-07T13:47:11Z</time>
      </trkpt>
      <trkpt lat="50.52946" lon="3.70657">
        <ele>58.78</ele>
        <time>2016-11-07T13:47:25Z</time>
      </trkpt>
      <trkpt lat="50.52947" lon="3.70662">
        <ele>58.78</ele>
        <time>2016-11-07T13:47:28Z</time>
      </trkpt>
      <trkpt lat="50.52947" lon="3.70669">
        <ele>58.78</ele>
        <time>2016-11-07T13:47:32Z</time>
      </trkpt>
      <trkpt lat="50.52951" lon="3.70673">
        <ele>58.78</ele>
        <time>2016-11-07T13:47:37Z</time>
      </trkpt>
      <trkpt lat="50.52965" lon="3.70688">
        <ele>58.78</ele>
        <time>2016-11-07T13:47:51Z</time>
      </trkpt>
      <trkpt lat="50.52977" lon="3.70699">
        <ele>58.78</ele>
        <time>2016-11-07T13:48:01Z</time>
      </trkpt>
      <trkpt lat="50.52989" lon="3.70703">
        <ele>58.78</ele>
        <time>2016-11-07T13:48:11Z</time>
      </trkpt>
      <trkpt lat="50.53003" lon="3.70726">
        <ele>58.78</ele>
        <time>2016-11-07T13:48:26Z</time>
      </trkpt>
      <trkpt lat="50.53012" lon="3.7074">
        <ele>58.78</ele>
        <time>2016-11-07T13:48:38Z</time>
      </trkpt>
      <trkpt lat="50.53013" lon="3.70742">
        <ele>58.78</ele>
        <time>2016-11-07T13:48:39Z</time>
      </trkpt>
      <trkpt lat="50.53024" lon="3.70759">
        <ele>58.3</ele>
        <time>2016-11-07T13:48:53Z</time>
      </trkpt>
      <trkpt lat="50.53029" lon="3.70766">
        <ele>58.3</ele>
        <time>2016-11-07T13:48:58Z</time>
      </trkpt>
      <trkpt lat="50.53035" lon="3.7077">
        <ele>58.3</ele>
        <time>2016-11-07T13:49:04Z</time>
      </trkpt>
      <trkpt lat="50.53051" lon="3.70792">
        <ele>58.3</ele>
        <time>2016-11-07T13:49:20Z</time>
      </trkpt>
      <trkpt lat="50.53069" lon="3.70802">
        <ele>57.82</ele>
        <time>2016-11-07T13:49:35Z</time>
      </trkpt>
      <trkpt lat="50.53082" lon="3.70817">
        <ele>57.82</ele>
        <time>2016-11-07T13:49:49Z</time>
      </trkpt>
      <trkpt lat="50.53086" lon="3.7082">
        <ele>57.82</ele>
        <time>2016-11-07T13:49:53Z</time>
      </trkpt>
      <trkpt lat="50.53094" lon="3.70825">
        <ele>57.82</ele>
        <time>2016-11-07T13:50:00Z</time>
      </trkpt>
      <trkpt lat="50.53098" lon="3.70837">
        <ele>56.86</ele>
        <time>2016-11-07T13:50:07Z</time>
      </trkpt>
      <trkpt lat="50.53107" lon="3.70847">
        <ele>56.86</ele>
        <time>2016-11-07T13:50:15Z</time>
      </trkpt>
      <trkpt lat="50.53111" lon="3.70854">
        <ele>56.86</ele>
        <time>2016-11-07T13:50:20Z</time>
      </trkpt>
      <trkpt lat="50.53113" lon="3.70856">
        <ele>56.86</ele>
        <time>2016-11-07T13:50:22Z</time>
      </trkpt>
      <trkpt lat="50.53116" lon="3.70857">
        <ele>56.86</ele>
        <time>2016-11-07T13:50:24Z</time>
      </trkpt>
      <trkpt lat="50.53122" lon="3.70861">
        <ele>56.86</ele>
        <time>2016-11-07T13:50:29Z</time>
      </trkpt>
      <trkpt lat="50.53129" lon="3.70866">
        <ele>56.86</ele>
        <time>2016-11-07T13:50:35Z</time>
      </trkpt>
      <trkpt lat="50.53131" lon="3.70868">
        <ele>56.86</ele>
        <time>2016-11-07T13:50:37Z</time>
      </trkpt>
      <trkpt lat="50.53147" lon="3.7089">
        <ele>56.86</ele>
        <time>2016-11-07T13:50:55Z</time>
      </trkpt>
      <trkpt lat="50.53157" lon="3.70904">
        <ele>56.86</ele>
        <time>2016-11-07T13:51:06Z</time>
      </trkpt>
      <trkpt lat="50.53167" lon="3.70915">
        <ele>56.86</ele>
        <time>2016-11-07T13:51:16Z</time>
      </trkpt>
      <trkpt lat="50.53185" lon="3.70937">
        <ele>56.37</ele>
        <time>2016-11-07T13:51:33Z</time>
      </trkpt>
      <trkpt lat="50.53186" lon="3.70939">
        <ele>56.37</ele>
        <time>2016-11-07T13:51:34Z</time>
      </trkpt>
      <trkpt lat="50.53201" lon="3.7096">
        <ele>56.37</ele>
        <time>2016-11-07T13:51:50Z</time>
      </trkpt>
      <trkpt lat="50.53203" lon="3.70962">
        <ele>56.37</ele>
        <time>2016-11-07T13:51:52Z</time>
      </trkpt>
      <trkpt lat="50.53215" lon="3.70968">
        <ele>56.37</ele>
        <time>2016-11-07T13:52:03Z</time>
      </trkpt>
      <trkpt lat="50.53221" lon="3.70974">
        <ele>56.37</ele>
        <time>2016-11-07T13:52:08Z</time>
      </trkpt>
      <trkpt lat="50.53224" lon="3.70977">
        <ele>56.37</ele>
        <time>2016-11-07T13:52:11Z</time>
      </trkpt>
      <trkpt lat="50.53233" lon="3.70986">
        <ele>55.89</ele>
        <time>2016-11-07T13:52:20Z</time>
      </trkpt>
      <trkpt lat="50.53243" lon="3.71004">
        <ele>55.89</ele>
        <time>2016-11-07T13:52:31Z</time>
      </trkpt>
      <trkpt lat="50.53248" lon="3.71006">
        <ele>55.89</ele>
        <time>2016-11-07T13:52:35Z</time>
      </trkpt>
      <trkpt lat="50.53262" lon="3.71021">
        <ele>55.41</ele>
        <time>2016-11-07T13:52:50Z</time>
      </trkpt>
      <trkpt lat="50.53274" lon="3.71037">
        <ele>55.41</ele>
        <time>2016-11-07T13:53:04Z</time>
      </trkpt>
      <trkpt lat="50.53286" lon="3.71055">
        <ele>55.41</ele>
        <time>2016-11-07T13:53:17Z</time>
      </trkpt>
      <trkpt lat="50.533" lon="3.71066">
        <ele>54.93</ele>
        <time>2016-11-07T13:53:30Z</time>
      </trkpt>
      <trkpt lat="50.53309" lon="3.71085">
        <ele>54.93</ele>
        <time>2016-11-07T13:53:42Z</time>
      </trkpt>
      <trkpt lat="50.53323" lon="3.71099">
        <ele>54.45</ele>
        <time>2016-11-07T13:53:56Z</time>
      </trkpt>
      <trkpt lat="50.53337" lon="3.71118">
        <ele>54.45</ele>
        <time>2016-11-07T13:54:11Z</time>
      </trkpt>
      <trkpt lat="50.53346" lon="3.71129">
        <ele>54.45</ele>
        <time>2016-11-07T13:54:23Z</time>
      </trkpt>
      <trkpt lat="50.53358" lon="3.71144">
        <ele>54.45</ele>
        <time>2016-11-07T13:54:38Z</time>
      </trkpt>
      <trkpt lat="50.53361" lon="3.71145">
        <ele>54.45</ele>
        <time>2016-11-07T13:54:40Z</time>
      </trkpt>
      <trkpt lat="50.53372" lon="3.71151">
        <ele>53.97</ele>
        <time>2016-11-07T13:54:50Z</time>
      </trkpt>
      <trkpt lat="50.53394" lon="3.71169">
        <ele>53.97</ele>
        <time>2016-11-07T13:55:05Z</time>
      </trkpt>
      <trkpt lat="50.53406" lon="3.71182">
        <ele>53.49</ele>
        <time>2016-11-07T13:55:18Z</time>
      </trkpt>
      <trkpt lat="50.53419" lon="3.71192">
        <ele>53.49</ele>
        <time>2016-11-07T13:55:30Z</time>
      </trkpt>
      <trkpt lat="50.53426" lon="3.71199">
        <ele>53.49</ele>
        <time>2016-11-07T13:55:37Z</time>
      </trkpt>
      <trkpt lat="50.5343" lon="3.71202">
        <ele>53.49</ele>
        <time>2016-11-07T13:55:40Z</time>
      </trkpt>
      <trkpt lat="50.53445" lon="3.71222">
        <ele>53.01</ele>
        <time>2016-11-07T13:55:55Z</time>
      </trkpt>
      <trkpt lat="50.53462" lon="3.71245">
        <ele>53.01</ele>
        <time>2016-11-07T13:56:11Z</time>
      </trkpt>
      <trkpt lat="50.53476" lon="3.71256">
        <ele>53.01</ele>
        <time>2016-11-07T13:56:24Z</time>
      </trkpt>
      <trkpt lat="50.53483" lon="3.71262">
        <ele>53.01</ele>
        <time>2016-11-07T13:56:31Z</time>
      </trkpt>
      <trkpt lat="50.53487" lon="3.71264">
        <ele>53.01</ele>
        <time>2016-11-07T13:56:35Z</time>
      </trkpt>
      <trkpt lat="50.53496" lon="3.71275">
        <ele>53.01</ele>
        <time>2016-11-07T13:56:45Z</time>
      </trkpt>
      <trkpt lat="50.5351" lon="3.7129">
        <ele>53.01</ele>
        <time>2016-11-07T13:56:59Z</time>
      </trkpt>
      <trkpt lat="50.53519" lon="3.71302">
        <ele>52.53</ele>
        <time>2016-11-07T13:57:08Z</time>
      </trkpt>
      <trkpt lat="50.53523" lon="3.71304">
        <ele>52.53</ele>
        <time>2016-11-07T13:57:11Z</time>
      </trkpt>
      <trkpt lat="50.53524" lon="3.71306">
        <ele>52.53</ele>
        <time>2016-11-07T13:57:13Z</time>
      </trkpt>
      <trkpt lat="50.53536" lon="3.71315">
        <ele>52.53</ele>
        <time>2016-11-07T13:57:23Z</time>
      </trkpt>
      <trkpt lat="50.53545" lon="3.71323">
        <ele>52.53</ele>
        <time>2016-11-07T13:57:31Z</time>
      </trkpt>
      <trkpt lat="50.53551" lon="3.71333">
        <ele>52.53</ele>
        <time>2016-11-07T13:57:36Z</time>
      </trkpt>
      <trkpt lat="50.53566" lon="3.71352">
        <ele>52.53</ele>
        <time>2016-11-07T13:57:52Z</time>
      </trkpt>
      <trkpt lat="50.53582" lon="3.71369">
        <ele>52.53</ele>
        <time>2016-11-07T13:58:08Z</time>
      </trkpt>
      <trkpt lat="50.53596" lon="3.71386">
        <ele>52.53</ele>
        <time>2016-11-07T13:58:24Z</time>
      </trkpt>
      <trkpt lat="50.53601" lon="3.71392">
        <ele>52.53</ele>
        <time>2016-11-07T13:58:30Z</time>
      </trkpt>
      <trkpt lat="50.53613" lon="3.71403">
        <ele>52.53</ele>
        <time>2016-11-07T13:58:41Z</time>
      </trkpt>
      <trkpt lat="50.53626" lon="3.71417">
        <ele>52.05</ele>
        <time>2016-11-07T13:58:55Z</time>
      </trkpt>
      <trkpt lat="50.5364" lon="3.71432">
        <ele>52.05</ele>
        <time>2016-11-07T13:59:09Z</time>
      </trkpt>
      <trkpt lat="50.53653" lon="3.71441">
        <ele>52.05</ele>
        <time>2016-11-07T13:59:19Z</time>
      </trkpt>
      <trkpt lat="50.53665" lon="3.71461">
        <ele>52.05</ele>
        <time>2016-11-07T13:59:31Z</time>
      </trkpt>
      <trkpt lat="50.53682" lon="3.71477">
        <ele>52.05</ele>
        <time>2016-11-07T13:59:48Z</time>
      </trkpt>
      <trkpt lat="50.53691" lon="3.71488">
        <ele>51.57</ele>
        <time>2016-11-07T13:59:57Z</time>
      </trkpt>
      <trkpt lat="50.537" lon="3.71497">
        <ele>51.57</ele>
        <time>2016-11-07T14:00:04Z</time>
      </trkpt>
      <trkpt lat="50.53718" lon="3.71517">
        <ele>51.57</ele>
        <time>2016-11-07T14:00:20Z</time>
      </trkpt>
      <trkpt lat="50.53737" lon="3.71535">
        <ele>51.57</ele>
        <time>2016-11-07T14:00:38Z</time>
      </trkpt>
      <trkpt lat="50.53751" lon="3.7155">
        <ele>51.09</ele>
        <time>2016-11-07T14:00:54Z</time>
      </trkpt>
      <trkpt lat="50.53752" lon="3.71547">
        <ele>51.09</ele>
        <time>2016-11-07T14:01:07Z</time>
      </trkpt>
      <trkpt lat="50.53755" lon="3.71551">
        <ele>51.09</ele>
        <time>2016-11-07T14:01:10Z</time>
      </trkpt>
      <trkpt lat="50.53769" lon="3.71568">
        <ele>50.61</ele>
        <time>2016-11-07T14:01:24Z</time>
      </trkpt>
      <trkpt lat="50.53784" lon="3.71582">
        <ele>50.61</ele>
        <time>2016-11-07T14:01:38Z</time>
      </trkpt>
      <trkpt lat="50.53801" lon="3.71606">
        <ele>50.13</ele>
        <time>2016-11-07T14:01:56Z</time>
      </trkpt>
      <trkpt lat="50.53804" lon="3.71638">
        <ele>50.13</ele>
        <time>2016-11-07T14:02:13Z</time>
      </trkpt>
      <trkpt lat="50.53802" lon="3.71656">
        <ele>50.13</ele>
        <time>2016-11-07T14:02:23Z</time>
      </trkpt>
      <trkpt lat="50.53808" lon="3.71688">
        <ele>50.13</ele>
        <time>2016-11-07T14:02:40Z</time>
      </trkpt>
      <trkpt lat="50.53821" lon="3.71717">
        <ele>50.13</ele>
        <time>2016-11-07T14:02:58Z</time>
      </trkpt>
      <trkpt lat="50.53837" lon="3.71735">
        <ele>50.13</ele>
        <time>2016-11-07T14:03:13Z</time>
      </trkpt>
      <trkpt lat="50.53853" lon="3.71747">
        <ele>49.65</ele>
        <time>2016-11-07T14:03:27Z</time>
      </trkpt>
      <trkpt lat="50.53872" lon="3.71754">
        <ele>49.65</ele>
        <time>2016-11-07T14:03:42Z</time>
      </trkpt>
      <trkpt lat="50.53894" lon="3.71754">
        <ele>49.65</ele>
        <time>2016-11-07T14:04:00Z</time>
      </trkpt>
      <trkpt lat="50.53913" lon="3.71747">
        <ele>49.16</ele>
        <time>2016-11-07T14:04:15Z</time>
      </trkpt>
      <trkpt lat="50.53931" lon="3.71746">
        <ele>49.16</ele>
        <time>2016-11-07T14:04:30Z</time>
      </trkpt>
      <trkpt lat="50.53949" lon="3.71762">
        <ele>49.16</ele>
        <time>2016-11-07T14:04:47Z</time>
      </trkpt>
      <trkpt lat="50.5396" lon="3.71777">
        <ele>49.16</ele>
        <time>2016-11-07T14:05:03Z</time>
      </trkpt>
      <trkpt lat="50.53961" lon="3.71778">
        <ele>49.16</ele>
        <time>2016-11-07T14:05:04Z</time>
      </trkpt>
      <trkpt lat="50.53976" lon="3.71795">
        <ele>49.16</ele>
        <time>2016-11-07T14:05:20Z</time>
      </trkpt>
      <trkpt lat="50.53993" lon="3.71814">
        <ele>49.16</ele>
        <time>2016-11-07T14:05:37Z</time>
      </trkpt>
      <trkpt lat="50.5401" lon="3.7183">
        <ele>49.16</ele>
        <time>2016-11-07T14:05:54Z</time>
      </trkpt>
      <trkpt lat="50.5402" lon="3.71841">
        <ele>49.16</ele>
        <time>2016-11-07T14:06:04Z</time>
      </trkpt>
      <trkpt lat="50.54035" lon="3.71852">
        <ele>49.16</ele>
        <time>2016-11-07T14:06:19Z</time>
      </trkpt>
      <trkpt lat="50.54037" lon="3.71855">
        <ele>49.16</ele>
        <time>2016-11-07T14:06:22Z</time>
      </trkpt>
      <trkpt lat="50.54052" lon="3.71877">
        <ele>49.16</ele>
        <time>2016-11-07T14:06:37Z</time>
      </trkpt>
      <trkpt lat="50.54069" lon="3.71898">
        <ele>49.16</ele>
        <time>2016-11-07T14:06:53Z</time>
      </trkpt>
      <trkpt lat="50.54083" lon="3.71914">
        <ele>49.16</ele>
        <time>2016-11-07T14:07:06Z</time>
      </trkpt>
      <trkpt lat="50.54096" lon="3.71931">
        <ele>49.16</ele>
        <time>2016-11-07T14:07:19Z</time>
      </trkpt>
      <trkpt lat="50.54103" lon="3.71939">
        <ele>49.65</ele>
        <time>2016-11-07T14:07:26Z</time>
      </trkpt>
      <trkpt lat="50.54113" lon="3.71953">
        <ele>49.65</ele>
        <time>2016-11-07T14:07:37Z</time>
      </trkpt>
      <trkpt lat="50.54128" lon="3.71968">
        <ele>49.16</ele>
        <time>2016-11-07T14:07:53Z</time>
      </trkpt>
      <trkpt lat="50.54142" lon="3.7198">
        <ele>49.16</ele>
        <time>2016-11-07T14:08:06Z</time>
      </trkpt>
      <trkpt lat="50.54155" lon="3.71993">
        <ele>49.16</ele>
        <time>2016-11-07T14:08:19Z</time>
      </trkpt>
      <trkpt lat="50.54172" lon="3.72007">
        <ele>48.68</ele>
        <time>2016-11-07T14:08:31Z</time>
      </trkpt>
      <trkpt lat="50.54176" lon="3.72012">
        <ele>48.68</ele>
        <time>2016-11-07T14:08:35Z</time>
      </trkpt>
      <trkpt lat="50.54188" lon="3.72019">
        <ele>49.16</ele>
        <time>2016-11-07T14:08:46Z</time>
      </trkpt>
      <trkpt lat="50.54193" lon="3.72027">
        <ele>49.16</ele>
        <time>2016-11-07T14:08:52Z</time>
      </trkpt>
      <trkpt lat="50.54201" lon="3.72033">
        <ele>49.16</ele>
        <time>2016-11-07T14:08:59Z</time>
      </trkpt>
      <trkpt lat="50.54208" lon="3.72043">
        <ele>48.68</ele>
        <time>2016-11-07T14:09:06Z</time>
      </trkpt>
      <trkpt lat="50.54215" lon="3.72046">
        <ele>49.16</ele>
        <time>2016-11-07T14:09:12Z</time>
      </trkpt>
      <trkpt lat="50.54228" lon="3.72069">
        <ele>49.16</ele>
        <time>2016-11-07T14:09:27Z</time>
      </trkpt>
      <trkpt lat="50.54241" lon="3.72083">
        <ele>49.16</ele>
        <time>2016-11-07T14:09:39Z</time>
      </trkpt>
      <trkpt lat="50.54256" lon="3.721">
        <ele>48.68</ele>
        <time>2016-11-07T14:09:53Z</time>
      </trkpt>
      <trkpt lat="50.54265" lon="3.72109">
        <ele>48.68</ele>
        <time>2016-11-07T14:10:02Z</time>
      </trkpt>
      <trkpt lat="50.5428" lon="3.72123">
        <ele>48.68</ele>
        <time>2016-11-07T14:10:17Z</time>
      </trkpt>
      <trkpt lat="50.54292" lon="3.72135">
        <ele>48.68</ele>
        <time>2016-11-07T14:10:30Z</time>
      </trkpt>
      <trkpt lat="50.54305" lon="3.72152">
        <ele>48.68</ele>
        <time>2016-11-07T14:10:43Z</time>
      </trkpt>
      <trkpt lat="50.54319" lon="3.72172">
        <ele>48.2</ele>
        <time>2016-11-07T14:10:57Z</time>
      </trkpt>
      <trkpt lat="50.54327" lon="3.72182">
        <ele>48.2</ele>
        <time>2016-11-07T14:11:04Z</time>
      </trkpt>
      <trkpt lat="50.54329" lon="3.72184">
        <ele>48.2</ele>
        <time>2016-11-07T14:11:06Z</time>
      </trkpt>
      <trkpt lat="50.54346" lon="3.722">
        <ele>48.2</ele>
        <time>2016-11-07T14:11:22Z</time>
      </trkpt>
      <trkpt lat="50.54351" lon="3.72203">
        <ele>48.2</ele>
        <time>2016-11-07T14:11:26Z</time>
      </trkpt>
      <trkpt lat="50.54359" lon="3.72214">
        <ele>48.2</ele>
        <time>2016-11-07T14:11:35Z</time>
      </trkpt>
      <trkpt lat="50.54372" lon="3.72236">
        <ele>48.2</ele>
        <time>2016-11-07T14:11:50Z</time>
      </trkpt>
      <trkpt lat="50.54383" lon="3.72246">
        <ele>47.72</ele>
        <time>2016-11-07T14:12:04Z</time>
      </trkpt>
      <trkpt lat="50.54403" lon="3.72266">
        <ele>47.72</ele>
        <time>2016-11-07T14:12:20Z</time>
      </trkpt>
      <trkpt lat="50.54414" lon="3.72275">
        <ele>47.72</ele>
        <time>2016-11-07T14:12:29Z</time>
      </trkpt>
      <trkpt lat="50.54431" lon="3.72291">
        <ele>47.72</ele>
        <time>2016-11-07T14:12:45Z</time>
      </trkpt>
      <trkpt lat="50.54436" lon="3.72294">
        <ele>47.72</ele>
        <time>2016-11-07T14:12:49Z</time>
      </trkpt>
      <trkpt lat="50.54442" lon="3.72302">
        <ele>47.72</ele>
        <time>2016-11-07T14:12:55Z</time>
      </trkpt>
      <trkpt lat="50.54458" lon="3.72317">
        <ele>47.72</ele>
        <time>2016-11-07T14:13:10Z</time>
      </trkpt>
      <trkpt lat="50.54475" lon="3.72333">
        <ele>47.72</ele>
        <time>2016-11-07T14:13:26Z</time>
      </trkpt>
      <trkpt lat="50.54484" lon="3.72344">
        <ele>47.72</ele>
        <time>2016-11-07T14:13:35Z</time>
      </trkpt>
      <trkpt lat="50.54493" lon="3.72361">
        <ele>47.72</ele>
        <time>2016-11-07T14:13:44Z</time>
      </trkpt>
      <trkpt lat="50.54509" lon="3.72375">
        <ele>47.72</ele>
        <time>2016-11-07T14:13:59Z</time>
      </trkpt>
      <trkpt lat="50.54512" lon="3.72382">
        <ele>47.24</ele>
        <time>2016-11-07T14:14:04Z</time>
      </trkpt>
      <trkpt lat="50.54528" lon="3.72396">
        <ele>47.24</ele>
        <time>2016-11-07T14:14:18Z</time>
      </trkpt>
      <trkpt lat="50.54535" lon="3.72405">
        <ele>47.24</ele>
        <time>2016-11-07T14:14:25Z</time>
      </trkpt>
      <trkpt lat="50.54549" lon="3.7242">
        <ele>47.24</ele>
        <time>2016-11-07T14:14:38Z</time>
      </trkpt>
      <trkpt lat="50.54553" lon="3.72431">
        <ele>47.24</ele>
        <time>2016-11-07T14:14:45Z</time>
      </trkpt>
      <trkpt lat="50.54564" lon="3.72435">
        <ele>46.76</ele>
        <time>2016-11-07T14:14:53Z</time>
      </trkpt>
      <trkpt lat="50.54585" lon="3.72458">
        <ele>46.76</ele>
        <time>2016-11-07T14:15:12Z</time>
      </trkpt>
      <trkpt lat="50.54597" lon="3.72472">
        <ele>47.24</ele>
        <time>2016-11-07T14:15:24Z</time>
      </trkpt>
      <trkpt lat="50.54612" lon="3.72487">
        <ele>47.24</ele>
        <time>2016-11-07T14:15:39Z</time>
      </trkpt>
      <trkpt lat="50.54615" lon="3.72489">
        <ele>47.24</ele>
        <time>2016-11-07T14:15:52Z</time>
      </trkpt>
      <trkpt lat="50.54613" lon="3.72491">
        <ele>47.24</ele>
        <time>2016-11-07T14:16:17Z</time>
      </trkpt>
      <trkpt lat="50.54616" lon="3.7249">
        <ele>47.24</ele>
        <time>2016-11-07T14:16:46Z</time>
      </trkpt>
      <trkpt lat="50.54621" lon="3.72491">
        <ele>47.24</ele>
        <time>2016-11-07T14:17:02Z</time>
      </trkpt>
      <trkpt lat="50.54622" lon="3.72488">
        <ele>47.24</ele>
        <time>2016-11-07T14:17:19Z</time>
      </trkpt>
      <trkpt lat="50.5462" lon="3.72485">
        <ele>47.24</ele>
        <time>2016-11-07T14:17:43Z</time>
      </trkpt>
      <trkpt lat="50.5462" lon="3.72498">
        <ele>47.24</ele>
        <time>2016-11-07T14:18:03Z</time>
      </trkpt>
      <trkpt lat="50.54619" lon="3.72501">
        <ele>47.72</ele>
        <time>2016-11-07T14:18:05Z</time>
      </trkpt>
      <trkpt lat="50.54609" lon="3.72521">
        <ele>47.72</ele>
        <time>2016-11-07T14:18:20Z</time>
      </trkpt>
      <trkpt lat="50.54608" lon="3.72523">
        <ele>47.72</ele>
        <time>2016-11-07T14:18:21Z</time>
      </trkpt>
      <trkpt lat="50.54595" lon="3.7255">
        <ele>47.72</ele>
        <time>2016-11-07T14:18:39Z</time>
      </trkpt>
      <trkpt lat="50.54584" lon="3.72574">
        <ele>47.72</ele>
        <time>2016-11-07T14:18:55Z</time>
      </trkpt>
      <trkpt lat="50.54574" lon="3.72601">
        <ele>47.24</ele>
        <time>2016-11-07T14:19:12Z</time>
      </trkpt>
      <trkpt lat="50.54564" lon="3.72625">
        <ele>47.24</ele>
        <time>2016-11-07T14:19:27Z</time>
      </trkpt>
      <trkpt lat="50.54556" lon="3.72647">
        <ele>47.24</ele>
        <time>2016-11-07T14:19:41Z</time>
      </trkpt>
      <trkpt lat="50.54547" lon="3.7267">
        <ele>47.24</ele>
        <time>2016-11-07T14:19:57Z</time>
      </trkpt>
      <trkpt lat="50.54535" lon="3.72691">
        <ele>47.24</ele>
        <time>2016-11-07T14:20:11Z</time>
      </trkpt>
      <trkpt lat="50.54527" lon="3.72714">
        <ele>46.76</ele>
        <time>2016-11-07T14:20:27Z</time>
      </trkpt>
      <trkpt lat="50.54514" lon="3.72725">
        <ele>46.76</ele>
        <time>2016-11-07T14:20:39Z</time>
      </trkpt>
      <trkpt lat="50.54503" lon="3.72712">
        <ele>46.76</ele>
        <time>2016-11-07T14:20:54Z</time>
      </trkpt>
      <trkpt lat="50.54488" lon="3.72693">
        <ele>46.76</ele>
        <time>2016-11-07T14:21:10Z</time>
      </trkpt>
      <trkpt lat="50.54474" lon="3.72677">
        <ele>46.76</ele>
        <time>2016-11-07T14:21:24Z</time>
      </trkpt>
      <trkpt lat="50.54457" lon="3.72659">
        <ele>46.76</ele>
        <time>2016-11-07T14:21:40Z</time>
      </trkpt>
      <trkpt lat="50.54442" lon="3.72637">
        <ele>46.76</ele>
        <time>2016-11-07T14:21:58Z</time>
      </trkpt>
      <trkpt lat="50.54428" lon="3.72621">
        <ele>46.76</ele>
        <time>2016-11-07T14:22:12Z</time>
      </trkpt>
      <trkpt lat="50.54412" lon="3.726">
        <ele>46.76</ele>
        <time>2016-11-07T14:22:28Z</time>
      </trkpt>
      <trkpt lat="50.5441" lon="3.72599">
        <ele>46.76</ele>
        <time>2016-11-07T14:22:30Z</time>
      </trkpt>
      <trkpt lat="50.54399" lon="3.72586">
        <ele>46.76</ele>
        <time>2016-11-07T14:22:41Z</time>
      </trkpt>
      <trkpt lat="50.54381" lon="3.72562">
        <ele>46.76</ele>
        <time>2016-11-07T14:23:00Z</time>
      </trkpt>
      <trkpt lat="50.54365" lon="3.72539">
        <ele>46.76</ele>
        <time>2016-11-07T14:23:16Z</time>
      </trkpt>
      <trkpt lat="50.54351" lon="3.72521">
        <ele>47.24</ele>
        <time>2016-11-07T14:23:32Z</time>
      </trkpt>
      <trkpt lat="50.54333" lon="3.72507">
        <ele>47.24</ele>
        <time>2016-11-07T14:23:48Z</time>
      </trkpt>
      <trkpt lat="50.54318" lon="3.72498">
        <ele>47.24</ele>
        <time>2016-11-07T14:24:04Z</time>
      </trkpt>
      <trkpt lat="50.54299" lon="3.72494">
        <ele>47.24</ele>
        <time>2016-11-07T14:24:21Z</time>
      </trkpt>
      <trkpt lat="50.54294" lon="3.72496">
        <ele>47.24</ele>
        <time>2016-11-07T14:24:25Z</time>
      </trkpt>
      <trkpt lat="50.5429" lon="3.72502">
        <ele>47.24</ele>
        <time>2016-11-07T14:24:31Z</time>
      </trkpt>
      <trkpt lat="50.54285" lon="3.7251">
        <ele>47.24</ele>
        <time>2016-11-07T14:24:37Z</time>
      </trkpt>
      <trkpt lat="50.54275" lon="3.72545">
        <ele>47.24</ele>
        <time>2016-11-07T14:24:57Z</time>
      </trkpt>
      <trkpt lat="50.54267" lon="3.72576">
        <ele>48.68</ele>
        <time>2016-11-07T14:25:16Z</time>
      </trkpt>
      <trkpt lat="50.54258" lon="3.72607">
        <ele>48.68</ele>
        <time>2016-11-07T14:25:35Z</time>
      </trkpt>
      <trkpt lat="50.5425" lon="3.72637">
        <ele>49.16</ele>
        <time>2016-11-07T14:25:52Z</time>
      </trkpt>
      <trkpt lat="50.54242" lon="3.72668">
        <ele>49.16</ele>
        <time>2016-11-07T14:26:10Z</time>
      </trkpt>
      <trkpt lat="50.54232" lon="3.72703">
        <ele>49.16</ele>
        <time>2016-11-07T14:26:30Z</time>
      </trkpt>
      <trkpt lat="50.54224" lon="3.72734">
        <ele>49.65</ele>
        <time>2016-11-07T14:26:48Z</time>
      </trkpt>
      <trkpt lat="50.54215" lon="3.72766">
        <ele>49.65</ele>
        <time>2016-11-07T14:27:07Z</time>
      </trkpt>
      <trkpt lat="50.54205" lon="3.728">
        <ele>49.65</ele>
        <time>2016-11-07T14:27:26Z</time>
      </trkpt>
      <trkpt lat="50.54197" lon="3.72827">
        <ele>50.13</ele>
        <time>2016-11-07T14:27:42Z</time>
      </trkpt>
      <trkpt lat="50.54187" lon="3.72864">
        <ele>50.61</ele>
        <time>2016-11-07T14:28:03Z</time>
      </trkpt>
      <trkpt lat="50.54179" lon="3.72893">
        <ele>50.61</ele>
        <time>2016-11-07T14:28:20Z</time>
      </trkpt>
      <trkpt lat="50.54171" lon="3.72924">
        <ele>51.09</ele>
        <time>2016-11-07T14:28:38Z</time>
      </trkpt>
      <trkpt lat="50.54161" lon="3.72957">
        <ele>51.09</ele>
        <time>2016-11-07T14:28:57Z</time>
      </trkpt>
      <trkpt lat="50.54153" lon="3.72984">
        <ele>51.57</ele>
        <time>2016-11-07T14:29:12Z</time>
      </trkpt>
      <trkpt lat="50.54143" lon="3.73018">
        <ele>51.57</ele>
        <time>2016-11-07T14:29:30Z</time>
      </trkpt>
      <trkpt lat="50.54135" lon="3.73051">
        <ele>51.57</ele>
        <time>2016-11-07T14:29:49Z</time>
      </trkpt>
      <trkpt lat="50.54126" lon="3.73082">
        <ele>51.57</ele>
        <time>2016-11-07T14:30:06Z</time>
      </trkpt>
      <trkpt lat="50.54116" lon="3.73118">
        <ele>51.57</ele>
        <time>2016-11-07T14:30:26Z</time>
      </trkpt>
      <trkpt lat="50.54109" lon="3.73146">
        <ele>50.61</ele>
        <time>2016-11-07T14:30:42Z</time>
      </trkpt>
      <trkpt lat="50.54101" lon="3.73178">
        <ele>50.61</ele>
        <time>2016-11-07T14:31:00Z</time>
      </trkpt>
      <trkpt lat="50.54092" lon="3.73208">
        <ele>50.61</ele>
        <time>2016-11-07T14:31:17Z</time>
      </trkpt>
      <trkpt lat="50.54088" lon="3.73225">
        <ele>50.61</ele>
        <time>2016-11-07T14:31:31Z</time>
      </trkpt>
      <trkpt lat="50.54089" lon="3.73228">
        <ele>50.61</ele>
        <time>2016-11-07T14:31:54Z</time>
      </trkpt>
      <trkpt lat="50.5409" lon="3.73239">
        <ele>50.61</ele>
        <time>2016-11-07T14:32:12Z</time>
      </trkpt>
      <trkpt lat="50.5409" lon="3.73239">
        <ele>50.61</ele>
        <time>2016-11-07T14:32:13Z</time>
      </trkpt>
      <trkpt lat="50.54093" lon="3.73243">
        <ele>52.05</ele>
        <time>2016-11-07T14:32:17Z</time>
      </trkpt>
      <trkpt lat="50.54111" lon="3.73251">
        <ele>52.05</ele>
        <time>2016-11-07T14:32:37Z</time>
      </trkpt>
      <trkpt lat="50.54129" lon="3.73257">
        <ele>52.05</ele>
        <time>2016-11-07T14:32:53Z</time>
      </trkpt>
      <trkpt lat="50.54146" lon="3.73264">
        <ele>52.53</ele>
        <time>2016-11-07T14:33:08Z</time>
      </trkpt>
      <trkpt lat="50.54152" lon="3.73272">
        <ele>52.53</ele>
        <time>2016-11-07T14:33:21Z</time>
      </trkpt>
      <trkpt lat="50.54158" lon="3.73276">
        <ele>52.53</ele>
        <time>2016-11-07T14:33:25Z</time>
      </trkpt>
      <trkpt lat="50.54175" lon="3.73282">
        <ele>52.53</ele>
        <time>2016-11-07T14:33:38Z</time>
      </trkpt>
      <trkpt lat="50.54191" lon="3.73289">
        <ele>52.53</ele>
        <time>2016-11-07T14:33:53Z</time>
      </trkpt>
      <trkpt lat="50.54211" lon="3.73297">
        <ele>53.01</ele>
        <time>2016-11-07T14:34:10Z</time>
      </trkpt>
      <trkpt lat="50.54228" lon="3.73301">
        <ele>53.01</ele>
        <time>2016-11-07T14:34:27Z</time>
      </trkpt>
      <trkpt lat="50.54229" lon="3.73301">
        <ele>53.01</ele>
        <time>2016-11-07T14:34:28Z</time>
      </trkpt>
      <trkpt lat="50.54253" lon="3.73313">
        <ele>53.01</ele>
        <time>2016-11-07T14:34:44Z</time>
      </trkpt>
      <trkpt lat="50.54275" lon="3.7332">
        <ele>53.49</ele>
        <time>2016-11-07T14:35:00Z</time>
      </trkpt>
      <trkpt lat="50.54287" lon="3.73325">
        <ele>53.49</ele>
        <time>2016-11-07T14:35:13Z</time>
      </trkpt>
      <trkpt lat="50.54288" lon="3.73325">
        <ele>53.49</ele>
        <time>2016-11-07T14:35:14Z</time>
      </trkpt>
      <trkpt lat="50.54291" lon="3.73326">
        <ele>53.49</ele>
        <time>2016-11-07T14:35:16Z</time>
      </trkpt>
      <trkpt lat="50.5431" lon="3.73332">
        <ele>53.49</ele>
        <time>2016-11-07T14:35:33Z</time>
      </trkpt>
      <trkpt lat="50.54328" lon="3.73338">
        <ele>53.49</ele>
        <time>2016-11-07T14:35:49Z</time>
      </trkpt>
      <trkpt lat="50.54347" lon="3.73345">
        <ele>53.49</ele>
        <time>2016-11-07T14:36:05Z</time>
      </trkpt>
      <trkpt lat="50.54361" lon="3.7335">
        <ele>53.97</ele>
        <time>2016-11-07T14:36:22Z</time>
      </trkpt>
      <trkpt lat="50.54384" lon="3.73358">
        <ele>53.97</ele>
        <time>2016-11-07T14:36:39Z</time>
      </trkpt>
      <trkpt lat="50.54394" lon="3.73365">
        <ele>53.97</ele>
        <time>2016-11-07T14:36:49Z</time>
      </trkpt>
      <trkpt lat="50.54403" lon="3.73367">
        <ele>53.97</ele>
        <time>2016-11-07T14:36:59Z</time>
      </trkpt>
      <trkpt lat="50.54406" lon="3.73367">
        <ele>53.97</ele>
        <time>2016-11-07T14:37:01Z</time>
      </trkpt>
      <trkpt lat="50.54431" lon="3.73379">
        <ele>54.45</ele>
        <time>2016-11-07T14:37:20Z</time>
      </trkpt>
      <trkpt lat="50.54431" lon="3.73393">
        <ele>54.45</ele>
        <time>2016-11-07T14:37:32Z</time>
      </trkpt>
      <trkpt lat="50.54431" lon="3.7341">
        <ele>54.93</ele>
        <time>2016-11-07T14:37:43Z</time>
      </trkpt>
      <trkpt lat="50.54429" lon="3.73422">
        <ele>54.93</ele>
        <time>2016-11-07T14:37:51Z</time>
      </trkpt>
      <trkpt lat="50.54428" lon="3.73447">
        <ele>54.93</ele>
        <time>2016-11-07T14:38:07Z</time>
      </trkpt>
      <trkpt lat="50.54432" lon="3.73448">
        <ele>54.93</ele>
        <time>2016-11-07T14:38:11Z</time>
      </trkpt>
      <trkpt lat="50.54438" lon="3.73456">
        <ele>54.93</ele>
        <time>2016-11-07T14:38:20Z</time>
      </trkpt>
      <trkpt lat="50.54436" lon="3.73477">
        <ele>54.93</ele>
        <time>2016-11-07T14:38:35Z</time>
      </trkpt>
      <trkpt lat="50.54436" lon="3.73486">
        <ele>54.45</ele>
        <time>2016-11-07T14:38:40Z</time>
      </trkpt>
      <trkpt lat="50.54431" lon="3.73519">
        <ele>55.41</ele>
        <time>2016-11-07T14:38:57Z</time>
      </trkpt>
      <trkpt lat="50.54423" lon="3.73543">
        <ele>55.41</ele>
        <time>2016-11-07T14:39:12Z</time>
      </trkpt>
      <trkpt lat="50.54427" lon="3.73564">
        <ele>55.89</ele>
        <time>2016-11-07T14:39:26Z</time>
      </trkpt>
      <trkpt lat="50.54434" lon="3.73565">
        <ele>55.89</ele>
        <time>2016-11-07T14:39:35Z</time>
      </trkpt>
      <trkpt lat="50.54447" lon="3.73568">
        <ele>55.89</ele>
        <time>2016-11-07T14:39:49Z</time>
      </trkpt>
      <trkpt lat="50.54465" lon="3.73574">
        <ele>55.89</ele>
        <time>2016-11-07T14:40:06Z</time>
      </trkpt>
      <trkpt lat="50.54471" lon="3.73576">
        <ele>55.89</ele>
        <time>2016-11-07T14:40:11Z</time>
      </trkpt>
      <trkpt lat="50.54478" lon="3.73579">
        <ele>55.89</ele>
        <time>2016-11-07T14:40:17Z</time>
      </trkpt>
      <trkpt lat="50.54489" lon="3.73599">
        <ele>56.37</ele>
        <time>2016-11-07T14:40:31Z</time>
      </trkpt>
      <trkpt lat="50.54491" lon="3.73626">
        <ele>56.37</ele>
        <time>2016-11-07T14:40:47Z</time>
      </trkpt>
      <trkpt lat="50.54488" lon="3.73664">
        <ele>56.86</ele>
        <time>2016-11-07T14:41:07Z</time>
      </trkpt>
      <trkpt lat="50.54483" lon="3.73698">
        <ele>57.34</ele>
        <time>2016-11-07T14:41:25Z</time>
      </trkpt>
      <trkpt lat="50.54482" lon="3.73726">
        <ele>57.34</ele>
        <time>2016-11-07T14:41:42Z</time>
      </trkpt>
      <trkpt lat="50.54474" lon="3.73753">
        <ele>57.82</ele>
        <time>2016-11-07T14:41:59Z</time>
      </trkpt>
      <trkpt lat="50.54473" lon="3.73755">
        <ele>57.82</ele>
        <time>2016-11-07T14:42:00Z</time>
      </trkpt>
      <trkpt lat="50.54472" lon="3.73761">
        <ele>58.3</ele>
        <time>2016-11-07T14:42:04Z</time>
      </trkpt>
      <trkpt lat="50.54468" lon="3.73766">
        <ele>58.3</ele>
        <time>2016-11-07T14:42:09Z</time>
      </trkpt>
      <trkpt lat="50.5445" lon="3.7377">
        <ele>58.78</ele>
        <time>2016-11-07T14:42:24Z</time>
      </trkpt>
      <trkpt lat="50.5443" lon="3.73766">
        <ele>58.78</ele>
        <time>2016-11-07T14:42:40Z</time>
      </trkpt>
      <trkpt lat="50.54426" lon="3.73765">
        <ele>58.78</ele>
        <time>2016-11-07T14:42:59Z</time>
      </trkpt>
      <trkpt lat="50.54424" lon="3.73765">
        <ele>58.78</ele>
        <time>2016-11-07T14:43:15Z</time>
      </trkpt>
      <trkpt lat="50.54425" lon="3.73765">
        <ele>58.78</ele>
        <time>2016-11-07T14:43:36Z</time>
      </trkpt>
      <trkpt lat="50.54417" lon="3.73765">
        <ele>57.82</ele>
        <time>2016-11-07T14:43:51Z</time>
      </trkpt>
      <trkpt lat="50.54413" lon="3.73763">
        <ele>57.82</ele>
        <time>2016-11-07T14:43:55Z</time>
      </trkpt>
      <trkpt lat="50.54404" lon="3.73761">
        <ele>57.82</ele>
        <time>2016-11-07T14:44:03Z</time>
      </trkpt>
      <trkpt lat="50.54386" lon="3.73758">
        <ele>57.34</ele>
        <time>2016-11-07T14:44:20Z</time>
      </trkpt>
      <trkpt lat="50.54364" lon="3.73756">
        <ele>56.86</ele>
        <time>2016-11-07T14:44:38Z</time>
      </trkpt>
      <trkpt lat="50.54348" lon="3.73752">
        <ele>56.86</ele>
        <time>2016-11-07T14:44:53Z</time>
      </trkpt>
      <trkpt lat="50.5433" lon="3.73749">
        <ele>57.34</ele>
        <time>2016-11-07T14:45:08Z</time>
      </trkpt>
      <trkpt lat="50.54308" lon="3.73747">
        <ele>56.86</ele>
        <time>2016-11-07T14:45:25Z</time>
      </trkpt>
      <trkpt lat="50.54289" lon="3.73745">
        <ele>56.37</ele>
        <time>2016-11-07T14:45:42Z</time>
      </trkpt>
      <trkpt lat="50.54279" lon="3.73742">
        <ele>56.37</ele>
        <time>2016-11-07T14:45:54Z</time>
      </trkpt>
      <trkpt lat="50.54264" lon="3.73737">
        <ele>56.37</ele>
        <time>2016-11-07T14:46:09Z</time>
      </trkpt>
      <trkpt lat="50.54257" lon="3.73736">
        <ele>55.89</ele>
        <time>2016-11-07T14:46:24Z</time>
      </trkpt>
      <trkpt lat="50.54247" lon="3.73726">
        <ele>55.89</ele>
        <time>2016-11-07T14:46:38Z</time>
      </trkpt>
      <trkpt lat="50.54233" lon="3.73714">
        <ele>55.89</ele>
        <time>2016-11-07T14:46:55Z</time>
      </trkpt>
      <trkpt lat="50.54231" lon="3.73713">
        <ele>55.41</ele>
        <time>2016-11-07T14:46:59Z</time>
      </trkpt>
      <trkpt lat="50.5422" lon="3.73703">
        <ele>55.41</ele>
        <time>2016-11-07T14:47:13Z</time>
      </trkpt>
      <trkpt lat="50.54216" lon="3.73686">
        <ele>54.93</ele>
        <time>2016-11-07T14:47:27Z</time>
      </trkpt>
      <trkpt lat="50.54214" lon="3.73684">
        <ele>54.93</ele>
        <time>2016-11-07T14:47:29Z</time>
      </trkpt>
      <trkpt lat="50.54203" lon="3.73679">
        <ele>54.93</ele>
        <time>2016-11-07T14:47:42Z</time>
      </trkpt>
      <trkpt lat="50.542" lon="3.73677">
        <ele>54.93</ele>
        <time>2016-11-07T14:47:45Z</time>
      </trkpt>
      <trkpt lat="50.54194" lon="3.73673">
        <ele>54.93</ele>
        <time>2016-11-07T14:47:52Z</time>
      </trkpt>
      <trkpt lat="50.5418" lon="3.73668">
        <ele>54.93</ele>
        <time>2016-11-07T14:48:05Z</time>
      </trkpt>
      <trkpt lat="50.54166" lon="3.73663">
        <ele>54.93</ele>
        <time>2016-11-07T14:48:16Z</time>
      </trkpt>
      <trkpt lat="50.54151" lon="3.73659">
        <ele>55.41</ele>
        <time>2016-11-07T14:48:29Z</time>
      </trkpt>
      <trkpt lat="50.54139" lon="3.73656">
        <ele>54.93</ele>
        <time>2016-11-07T14:48:44Z</time>
      </trkpt>
      <trkpt lat="50.54125" lon="3.73653">
        <ele>54.93</ele>
        <time>2016-11-07T14:48:58Z</time>
      </trkpt>
      <trkpt lat="50.54107" lon="3.73648">
        <ele>54.93</ele>
        <time>2016-11-07T14:49:12Z</time>
      </trkpt>
      <trkpt lat="50.54089" lon="3.73645">
        <ele>54.93</ele>
        <time>2016-11-07T14:49:23Z</time>
      </trkpt>
      <trkpt lat="50.54066" lon="3.73642">
        <ele>54.93</ele>
        <time>2016-11-07T14:49:39Z</time>
      </trkpt>
      <trkpt lat="50.54045" lon="3.73637">
        <ele>54.93</ele>
        <time>2016-11-07T14:49:54Z</time>
      </trkpt>
      <trkpt lat="50.54024" lon="3.73634">
        <ele>54.93</ele>
        <time>2016-11-07T14:50:11Z</time>
      </trkpt>
      <trkpt lat="50.54008" lon="3.7363">
        <ele>54.93</ele>
        <time>2016-11-07T14:50:26Z</time>
      </trkpt>
      <trkpt lat="50.53995" lon="3.73627">
        <ele>54.93</ele>
        <time>2016-11-07T14:50:38Z</time>
      </trkpt>
      <trkpt lat="50.53982" lon="3.73626">
        <ele>55.41</ele>
        <time>2016-11-07T14:50:49Z</time>
      </trkpt>
      <trkpt lat="50.53973" lon="3.73626">
        <ele>55.41</ele>
        <time>2016-11-07T14:50:56Z</time>
      </trkpt>
      <trkpt lat="50.53957" lon="3.73622">
        <ele>54.93</ele>
        <time>2016-11-07T14:51:10Z</time>
      </trkpt>
      <trkpt lat="50.53939" lon="3.73618">
        <ele>54.93</ele>
        <time>2016-11-07T14:51:26Z</time>
      </trkpt>
      <trkpt lat="50.5392" lon="3.73616">
        <ele>54.93</ele>
        <time>2016-11-07T14:51:42Z</time>
      </trkpt>
      <trkpt lat="50.53902" lon="3.73611">
        <ele>54.93</ele>
        <time>2016-11-07T14:51:57Z</time>
      </trkpt>
      <trkpt lat="50.53885" lon="3.73605">
        <ele>54.93</ele>
        <time>2016-11-07T14:52:12Z</time>
      </trkpt>
      <trkpt lat="50.53873" lon="3.73601">
        <ele>54.93</ele>
        <time>2016-11-07T14:52:25Z</time>
      </trkpt>
      <trkpt lat="50.5386" lon="3.736">
        <ele>54.93</ele>
        <time>2016-11-07T14:52:38Z</time>
      </trkpt>
      <trkpt lat="50.53839" lon="3.736">
        <ele>55.41</ele>
        <time>2016-11-07T14:52:55Z</time>
      </trkpt>
      <trkpt lat="50.53821" lon="3.73596">
        <ele>55.41</ele>
        <time>2016-11-07T14:53:11Z</time>
      </trkpt>
      <trkpt lat="50.53814" lon="3.73596">
        <ele>54.93</ele>
        <time>2016-11-07T14:53:18Z</time>
      </trkpt>
      <trkpt lat="50.53793" lon="3.73592">
        <ele>54.93</ele>
        <time>2016-11-07T14:53:37Z</time>
      </trkpt>
      <trkpt lat="50.53772" lon="3.7359">
        <ele>54.93</ele>
        <time>2016-11-07T14:53:53Z</time>
      </trkpt>
      <trkpt lat="50.53755" lon="3.73589">
        <ele>54.93</ele>
        <time>2016-11-07T14:54:08Z</time>
      </trkpt>
      <trkpt lat="50.53736" lon="3.73584">
        <ele>54.93</ele>
        <time>2016-11-07T14:54:23Z</time>
      </trkpt>
      <trkpt lat="50.53719" lon="3.7358">
        <ele>54.93</ele>
        <time>2016-11-07T14:54:39Z</time>
      </trkpt>
      <trkpt lat="50.53708" lon="3.73579">
        <ele>54.45</ele>
        <time>2016-11-07T14:54:48Z</time>
      </trkpt>
      <trkpt lat="50.53685" lon="3.73575">
        <ele>54.45</ele>
        <time>2016-11-07T14:55:06Z</time>
      </trkpt>
      <trkpt lat="50.5367" lon="3.73569">
        <ele>54.45</ele>
        <time>2016-11-07T14:55:22Z</time>
      </trkpt>
      <trkpt lat="50.53666" lon="3.73568">
        <ele>54.45</ele>
        <time>2016-11-07T14:55:27Z</time>
      </trkpt>
      <trkpt lat="50.5366" lon="3.73582">
        <ele>55.89</ele>
        <time>2016-11-07T14:55:43Z</time>
      </trkpt>
      <trkpt lat="50.53653" lon="3.73595">
        <ele>56.37</ele>
        <time>2016-11-07T14:55:57Z</time>
      </trkpt>
      <trkpt lat="50.53649" lon="3.73593">
        <ele>56.37</ele>
        <time>2016-11-07T14:56:14Z</time>
      </trkpt>
      <trkpt lat="50.53646" lon="3.73591">
        <ele>56.37</ele>
        <time>2016-11-07T14:56:37Z</time>
      </trkpt>
      <trkpt lat="50.53645" lon="3.73591">
        <ele>56.37</ele>
        <time>2016-11-07T14:56:38Z</time>
      </trkpt>
      <trkpt lat="50.53628" lon="3.73594">
        <ele>56.37</ele>
        <time>2016-11-07T14:56:55Z</time>
      </trkpt>
      <trkpt lat="50.5361" lon="3.73594">
        <ele>56.37</ele>
        <time>2016-11-07T14:57:09Z</time>
      </trkpt>
      <trkpt lat="50.53593" lon="3.73592">
        <ele>56.37</ele>
        <time>2016-11-07T14:57:26Z</time>
      </trkpt>
      <trkpt lat="50.53581" lon="3.73589">
        <ele>56.37</ele>
        <time>2016-11-07T14:57:36Z</time>
      </trkpt>
      <trkpt lat="50.53557" lon="3.73585">
        <ele>56.37</ele>
        <time>2016-11-07T14:57:54Z</time>
      </trkpt>
      <trkpt lat="50.53542" lon="3.73582">
        <ele>56.37</ele>
        <time>2016-11-07T14:58:08Z</time>
      </trkpt>
      <trkpt lat="50.5352" lon="3.73577">
        <ele>56.37</ele>
        <time>2016-11-07T14:58:26Z</time>
      </trkpt>
      <trkpt lat="50.53497" lon="3.73573">
        <ele>56.86</ele>
        <time>2016-11-07T14:58:46Z</time>
      </trkpt>
      <trkpt lat="50.53476" lon="3.73568">
        <ele>56.86</ele>
        <time>2016-11-07T14:59:05Z</time>
      </trkpt>
      <trkpt lat="50.53456" lon="3.73566">
        <ele>56.86</ele>
        <time>2016-11-07T14:59:22Z</time>
      </trkpt>
      <trkpt lat="50.53445" lon="3.73562">
        <ele>56.86</ele>
        <time>2016-11-07T14:59:34Z</time>
      </trkpt>
      <trkpt lat="50.53438" lon="3.7356">
        <ele>56.86</ele>
        <time>2016-11-07T14:59:43Z</time>
      </trkpt>
      <trkpt lat="50.53416" lon="3.73555">
        <ele>56.86</ele>
        <time>2016-11-07T15:00:02Z</time>
      </trkpt>
      <trkpt lat="50.53396" lon="3.73553">
        <ele>56.86</ele>
        <time>2016-11-07T15:00:18Z</time>
      </trkpt>
      <trkpt lat="50.53371" lon="3.73549">
        <ele>56.86</ele>
        <time>2016-11-07T15:00:37Z</time>
      </trkpt>
      <trkpt lat="50.5335" lon="3.73547">
        <ele>56.86</ele>
        <time>2016-11-07T15:00:54Z</time>
      </trkpt>
      <trkpt lat="50.53326" lon="3.73542">
        <ele>56.86</ele>
        <time>2016-11-07T15:01:12Z</time>
      </trkpt>
      <trkpt lat="50.53301" lon="3.73539">
        <ele>56.86</ele>
        <time>2016-11-07T15:01:32Z</time>
      </trkpt>
      <trkpt lat="50.5328" lon="3.73532">
        <ele>57.34</ele>
        <time>2016-11-07T15:01:50Z</time>
      </trkpt>
      <trkpt lat="50.53257" lon="3.73525">
        <ele>57.34</ele>
        <time>2016-11-07T15:02:09Z</time>
      </trkpt>
      <trkpt lat="50.53239" lon="3.73518">
        <ele>57.34</ele>
        <time>2016-11-07T15:02:24Z</time>
      </trkpt>
      <trkpt lat="50.5322" lon="3.73506">
        <ele>57.34</ele>
        <time>2016-11-07T15:02:40Z</time>
      </trkpt>
      <trkpt lat="50.53199" lon="3.73489">
        <ele>57.34</ele>
        <time>2016-11-07T15:02:58Z</time>
      </trkpt>
      <trkpt lat="50.53181" lon="3.73474">
        <ele>57.34</ele>
        <time>2016-11-07T15:03:15Z</time>
      </trkpt>
      <trkpt lat="50.53162" lon="3.73452">
        <ele>57.34</ele>
        <time>2016-11-07T15:03:33Z</time>
      </trkpt>
      <trkpt lat="50.53144" lon="3.73428">
        <ele>57.34</ele>
        <time>2016-11-07T15:03:52Z</time>
      </trkpt>
      <trkpt lat="50.53131" lon="3.73409">
        <ele>57.34</ele>
        <time>2016-11-07T15:04:09Z</time>
      </trkpt>
      <trkpt lat="50.5312" lon="3.73394">
        <ele>57.34</ele>
        <time>2016-11-07T15:04:24Z</time>
      </trkpt>
      <trkpt lat="50.53112" lon="3.73385">
        <ele>57.34</ele>
        <time>2016-11-07T15:04:39Z</time>
      </trkpt>
      <trkpt lat="50.53096" lon="3.73367">
        <ele>57.34</ele>
        <time>2016-11-07T15:04:55Z</time>
      </trkpt>
      <trkpt lat="50.53079" lon="3.73342">
        <ele>57.82</ele>
        <time>2016-11-07T15:05:13Z</time>
      </trkpt>
      <trkpt lat="50.5306" lon="3.73316">
        <ele>57.82</ele>
        <time>2016-11-07T15:05:32Z</time>
      </trkpt>
      <trkpt lat="50.53045" lon="3.73299">
        <ele>57.82</ele>
        <time>2016-11-07T15:05:46Z</time>
      </trkpt>
      <trkpt lat="50.53029" lon="3.7328">
        <ele>57.82</ele>
        <time>2016-11-07T15:06:04Z</time>
      </trkpt>
      <trkpt lat="50.53016" lon="3.73263">
        <ele>57.82</ele>
        <time>2016-11-07T15:06:20Z</time>
      </trkpt>
      <trkpt lat="50.53" lon="3.73242">
        <ele>57.82</ele>
        <time>2016-11-07T15:06:36Z</time>
      </trkpt>
      <trkpt lat="50.52982" lon="3.73219">
        <ele>57.82</ele>
        <time>2016-11-07T15:06:55Z</time>
      </trkpt>
      <trkpt lat="50.52968" lon="3.73203">
        <ele>57.82</ele>
        <time>2016-11-07T15:07:10Z</time>
      </trkpt>
      <trkpt lat="50.52957" lon="3.73186">
        <ele>57.82</ele>
        <time>2016-11-07T15:07:28Z</time>
      </trkpt>
      <trkpt lat="50.52956" lon="3.73185">
        <ele>57.82</ele>
        <time>2016-11-07T15:07:29Z</time>
      </trkpt>
      <trkpt lat="50.52959" lon="3.7315">
        <ele>57.82</ele>
        <time>2016-11-07T15:07:48Z</time>
      </trkpt>
      <trkpt lat="50.52961" lon="3.73142">
        <ele>57.82</ele>
        <time>2016-11-07T15:07:52Z</time>
      </trkpt>
      <trkpt lat="50.52974" lon="3.73107">
        <ele>57.82</ele>
        <time>2016-11-07T15:08:12Z</time>
      </trkpt>
      <trkpt lat="50.52979" lon="3.73078">
        <ele>57.82</ele>
        <time>2016-11-07T15:08:27Z</time>
      </trkpt>
      <trkpt lat="50.52981" lon="3.73066">
        <ele>57.82</ele>
        <time>2016-11-07T15:08:34Z</time>
      </trkpt>
      <trkpt lat="50.52981" lon="3.73062">
        <ele>57.82</ele>
        <time>2016-11-07T15:08:36Z</time>
      </trkpt>
      <trkpt lat="50.52983" lon="3.73039">
        <ele>57.82</ele>
        <time>2016-11-07T15:08:47Z</time>
      </trkpt>
      <trkpt lat="50.52985" lon="3.73025">
        <ele>57.82</ele>
        <time>2016-11-07T15:08:54Z</time>
      </trkpt>
      <trkpt lat="50.5299" lon="3.72988">
        <ele>57.82</ele>
        <time>2016-11-07T15:09:13Z</time>
      </trkpt>
      <trkpt lat="50.52994" lon="3.72956">
        <ele>58.3</ele>
        <time>2016-11-07T15:09:28Z</time>
      </trkpt>
      <trkpt lat="50.52999" lon="3.72929">
        <ele>58.3</ele>
        <time>2016-11-07T15:09:43Z</time>
      </trkpt>
      <trkpt lat="50.53" lon="3.72909">
        <ele>58.3</ele>
        <time>2016-11-07T15:09:53Z</time>
      </trkpt>
      <trkpt lat="50.53004" lon="3.72886">
        <ele>58.78</ele>
        <time>2016-11-07T15:10:08Z</time>
      </trkpt>
      <trkpt lat="50.53008" lon="3.72869">
        <ele>58.78</ele>
        <time>2016-11-07T15:10:21Z</time>
      </trkpt>
      <trkpt lat="50.53008" lon="3.72867">
        <ele>58.78</ele>
        <time>2016-11-07T15:10:22Z</time>
      </trkpt>
      <trkpt lat="50.53006" lon="3.72846">
        <ele>58.78</ele>
        <time>2016-11-07T15:10:39Z</time>
      </trkpt>
      <trkpt lat="50.53002" lon="3.72827">
        <ele>58.78</ele>
        <time>2016-11-07T15:10:56Z</time>
      </trkpt>
      <trkpt lat="50.52996" lon="3.728">
        <ele>58.78</ele>
        <time>2016-11-07T15:11:16Z</time>
      </trkpt>
      <trkpt lat="50.52993" lon="3.72771">
        <ele>58.78</ele>
        <time>2016-11-07T15:11:32Z</time>
      </trkpt>
      <trkpt lat="50.52992" lon="3.72764">
        <ele>58.78</ele>
        <time>2016-11-07T15:11:36Z</time>
      </trkpt>
      <trkpt lat="50.52985" lon="3.7273">
        <ele>58.78</ele>
        <time>2016-11-07T15:11:52Z</time>
      </trkpt>
      <trkpt lat="50.52978" lon="3.72704">
        <ele>58.78</ele>
        <time>2016-11-07T15:12:05Z</time>
      </trkpt>
      <trkpt lat="50.5297" lon="3.72677">
        <ele>58.78</ele>
        <time>2016-11-07T15:12:21Z</time>
      </trkpt>
      <trkpt lat="50.52965" lon="3.72651">
        <ele>58.78</ele>
        <time>2016-11-07T15:12:38Z</time>
      </trkpt>
      <trkpt lat="50.5296" lon="3.72624">
        <ele>58.78</ele>
        <time>2016-11-07T15:12:51Z</time>
      </trkpt>
      <trkpt lat="50.52956" lon="3.72598">
        <ele>58.78</ele>
        <time>2016-11-07T15:13:06Z</time>
      </trkpt>
      <trkpt lat="50.5295" lon="3.72574">
        <ele>58.78</ele>
        <time>2016-11-07T15:13:18Z</time>
      </trkpt>
      <trkpt lat="50.52944" lon="3.7255">
        <ele>59.26</ele>
        <time>2016-11-07T15:13:32Z</time>
      </trkpt>
      <trkpt lat="50.52935" lon="3.72516">
        <ele>59.26</ele>
        <time>2016-11-07T15:13:52Z</time>
      </trkpt>
      <trkpt lat="50.52931" lon="3.72497">
        <ele>59.26</ele>
        <time>2016-11-07T15:14:01Z</time>
      </trkpt>
      <trkpt lat="50.52931" lon="3.72493">
        <ele>59.26</ele>
        <time>2016-11-07T15:14:03Z</time>
      </trkpt>
      <trkpt lat="50.52929" lon="3.72479">
        <ele>59.26</ele>
        <time>2016-11-07T15:14:11Z</time>
      </trkpt>
      <trkpt lat="50.52926" lon="3.72462">
        <ele>59.74</ele>
        <time>2016-11-07T15:14:21Z</time>
      </trkpt>
      <trkpt lat="50.5292" lon="3.72439">
        <ele>59.74</ele>
        <time>2016-11-07T15:14:34Z</time>
      </trkpt>
      <trkpt lat="50.5292" lon="3.72436">
        <ele>59.74</ele>
        <time>2016-11-07T15:14:36Z</time>
      </trkpt>
      <trkpt lat="50.52916" lon="3.72419">
        <ele>59.74</ele>
        <time>2016-11-07T15:14:47Z</time>
      </trkpt>
      <trkpt lat="50.52909" lon="3.72393">
        <ele>59.74</ele>
        <time>2016-11-07T15:15:04Z</time>
      </trkpt>
      <trkpt lat="50.52904" lon="3.72368">
        <ele>59.74</ele>
        <time>2016-11-07T15:15:19Z</time>
      </trkpt>
      <trkpt lat="50.52899" lon="3.72354">
        <ele>60.22</ele>
        <time>2016-11-07T15:15:27Z</time>
      </trkpt>
      <trkpt lat="50.52897" lon="3.72325">
        <ele>60.22</ele>
        <time>2016-11-07T15:15:40Z</time>
      </trkpt>
      <trkpt lat="50.52897" lon="3.72309">
        <ele>60.22</ele>
        <time>2016-11-07T15:15:48Z</time>
      </trkpt>
      <trkpt lat="50.52894" lon="3.72283">
        <ele>60.22</ele>
        <time>2016-11-07T15:16:01Z</time>
      </trkpt>
      <trkpt lat="50.52894" lon="3.72272">
        <ele>60.7</ele>
        <time>2016-11-07T15:16:07Z</time>
      </trkpt>
      <trkpt lat="50.52895" lon="3.72266">
        <ele>60.7</ele>
        <time>2016-11-07T15:16:11Z</time>
      </trkpt>
      <trkpt lat="50.52895" lon="3.72236">
        <ele>60.7</ele>
        <time>2016-11-07T15:16:25Z</time>
      </trkpt>
      <trkpt lat="50.52896" lon="3.72234">
        <ele>60.7</ele>
        <time>2016-11-07T15:16:26Z</time>
      </trkpt>
      <trkpt lat="50.52897" lon="3.72225">
        <ele>60.7</ele>
        <time>2016-11-07T15:16:31Z</time>
      </trkpt>
      <trkpt lat="50.52896" lon="3.72203">
        <ele>60.7</ele>
        <time>2016-11-07T15:16:44Z</time>
      </trkpt>
      <trkpt lat="50.52895" lon="3.72181">
        <ele>60.7</ele>
        <time>2016-11-07T15:16:56Z</time>
      </trkpt>
      <trkpt lat="50.52894" lon="3.72157">
        <ele>61.18</ele>
        <time>2016-11-07T15:17:11Z</time>
      </trkpt>
      <trkpt lat="50.52896" lon="3.72141">
        <ele>61.18</ele>
        <time>2016-11-07T15:17:19Z</time>
      </trkpt>
      <trkpt lat="50.52897" lon="3.7213">
        <ele>61.18</ele>
        <time>2016-11-07T15:17:25Z</time>
      </trkpt>
      <trkpt lat="50.52897" lon="3.72125">
        <ele>61.18</ele>
        <time>2016-11-07T15:17:27Z</time>
      </trkpt>
      <trkpt lat="50.52896" lon="3.72096">
        <ele>61.18</ele>
        <time>2016-11-07T15:17:41Z</time>
      </trkpt>
      <trkpt lat="50.52899" lon="3.7206">
        <ele>60.22</ele>
        <time>2016-11-07T15:17:58Z</time>
      </trkpt>
      <trkpt lat="50.52897" lon="3.72039">
        <ele>59.74</ele>
        <time>2016-11-07T15:18:10Z</time>
      </trkpt>
      <trkpt lat="50.52896" lon="3.72018">
        <ele>59.74</ele>
        <time>2016-11-07T15:18:23Z</time>
      </trkpt>
      <trkpt lat="50.52894" lon="3.72003">
        <ele>60.22</ele>
        <time>2016-11-07T15:18:32Z</time>
      </trkpt>
      <trkpt lat="50.52893" lon="3.71996">
        <ele>60.22</ele>
        <time>2016-11-07T15:18:36Z</time>
      </trkpt>
      <trkpt lat="50.5289" lon="3.71981">
        <ele>60.22</ele>
        <time>2016-11-07T15:18:46Z</time>
      </trkpt>
      <trkpt lat="50.52889" lon="3.71973">
        <ele>60.22</ele>
        <time>2016-11-07T15:18:50Z</time>
      </trkpt>
      <trkpt lat="50.52889" lon="3.71965">
        <ele>60.22</ele>
        <time>2016-11-07T15:18:54Z</time>
      </trkpt>
      <trkpt lat="50.52887" lon="3.71933">
        <ele>60.22</ele>
        <time>2016-11-07T15:19:11Z</time>
      </trkpt>
      <trkpt lat="50.52884" lon="3.71903">
        <ele>60.22</ele>
        <time>2016-11-07T15:19:26Z</time>
      </trkpt>
      <trkpt lat="50.5288" lon="3.71874">
        <ele>60.22</ele>
        <time>2016-11-07T15:19:40Z</time>
      </trkpt>
      <trkpt lat="50.52877" lon="3.71844">
        <ele>60.22</ele>
        <time>2016-11-07T15:19:56Z</time>
      </trkpt>
      <trkpt lat="50.52875" lon="3.71811">
        <ele>60.22</ele>
        <time>2016-11-07T15:20:13Z</time>
      </trkpt>
      <trkpt lat="50.52875" lon="3.71805">
        <ele>60.22</ele>
        <time>2016-11-07T15:20:16Z</time>
      </trkpt>
      <trkpt lat="50.5287" lon="3.71773">
        <ele>60.22</ele>
        <time>2016-11-07T15:20:34Z</time>
      </trkpt>
      <trkpt lat="50.52868" lon="3.71741">
        <ele>60.22</ele>
        <time>2016-11-07T15:20:48Z</time>
      </trkpt>
      <trkpt lat="50.52867" lon="3.71726">
        <ele>60.22</ele>
        <time>2016-11-07T15:20:56Z</time>
      </trkpt>
      <trkpt lat="50.52866" lon="3.71723">
        <ele>60.22</ele>
        <time>2016-11-07T15:20:58Z</time>
      </trkpt>
      <trkpt lat="50.52862" lon="3.71695">
        <ele>60.22</ele>
        <time>2016-11-07T15:21:14Z</time>
      </trkpt>
      <trkpt lat="50.52859" lon="3.7166">
        <ele>60.22</ele>
        <time>2016-11-07T15:21:30Z</time>
      </trkpt>
      <trkpt lat="50.52857" lon="3.7163">
        <ele>60.22</ele>
        <time>2016-11-07T15:21:46Z</time>
      </trkpt>
      <trkpt lat="50.52855" lon="3.71622">
        <ele>60.22</ele>
        <time>2016-11-07T15:21:50Z</time>
      </trkpt>
      <trkpt lat="50.52853" lon="3.71596">
        <ele>60.22</ele>
        <time>2016-11-07T15:22:04Z</time>
      </trkpt>
      <trkpt lat="50.52851" lon="3.71575">
        <ele>60.22</ele>
        <time>2016-11-07T15:22:15Z</time>
      </trkpt>
      <trkpt lat="50.5285" lon="3.71554">
        <ele>60.7</ele>
        <time>2016-11-07T15:22:24Z</time>
      </trkpt>
      <trkpt lat="50.52851" lon="3.71542">
        <ele>60.7</ele>
        <time>2016-11-07T15:22:30Z</time>
      </trkpt>
      <trkpt lat="50.52851" lon="3.71515">
        <ele>60.7</ele>
        <time>2016-11-07T15:22:43Z</time>
      </trkpt>
      <trkpt lat="50.52851" lon="3.71512">
        <ele>60.7</ele>
        <time>2016-11-07T15:22:44Z</time>
      </trkpt>
      <trkpt lat="50.52853" lon="3.71503">
        <ele>60.7</ele>
        <time>2016-11-07T15:22:49Z</time>
      </trkpt>
      <trkpt lat="50.52856" lon="3.71478">
        <ele>60.7</ele>
        <time>2016-11-07T15:23:02Z</time>
      </trkpt>
      <trkpt lat="50.52864" lon="3.71448">
        <ele>60.7</ele>
        <time>2016-11-07T15:23:18Z</time>
      </trkpt>
      <trkpt lat="50.52866" lon="3.71441">
        <ele>60.7</ele>
        <time>2016-11-07T15:23:23Z</time>
      </trkpt>
      <trkpt lat="50.52871" lon="3.71424">
        <ele>60.7</ele>
        <time>2016-11-07T15:23:32Z</time>
      </trkpt>
      <trkpt lat="50.52874" lon="3.71417">
        <ele>60.7</ele>
        <time>2016-11-07T15:23:36Z</time>
      </trkpt>
      <trkpt lat="50.52876" lon="3.71413">
        <ele>60.7</ele>
        <time>2016-11-07T15:23:39Z</time>
      </trkpt>
      <trkpt lat="50.52879" lon="3.71404">
        <ele>61.18</ele>
        <time>2016-11-07T15:23:44Z</time>
      </trkpt>
      <trkpt lat="50.52878" lon="3.71398">
        <ele>61.18</ele>
        <time>2016-11-07T15:23:47Z</time>
      </trkpt>
      <trkpt lat="50.52881" lon="3.7138">
        <ele>61.18</ele>
        <time>2016-11-07T15:23:58Z</time>
      </trkpt>
      <trkpt lat="50.52882" lon="3.7137">
        <ele>61.18</ele>
        <time>2016-11-07T15:24:04Z</time>
      </trkpt>
      <trkpt lat="50.52891" lon="3.71342">
        <ele>61.18</ele>
        <time>2016-11-07T15:24:20Z</time>
      </trkpt>
      <trkpt lat="50.52898" lon="3.71317">
        <ele>61.18</ele>
        <time>2016-11-07T15:24:34Z</time>
      </trkpt>
      <trkpt lat="50.52898" lon="3.71315">
        <ele>61.18</ele>
        <time>2016-11-07T15:24:35Z</time>
      </trkpt>
      <trkpt lat="50.52901" lon="3.71301">
        <ele>61.18</ele>
        <time>2016-11-07T15:24:44Z</time>
      </trkpt>
      <trkpt lat="50.52904" lon="3.71292">
        <ele>61.18</ele>
        <time>2016-11-07T15:24:49Z</time>
      </trkpt>
      <trkpt lat="50.52904" lon="3.71288">
        <ele>61.18</ele>
        <time>2016-11-07T15:24:51Z</time>
      </trkpt>
      <trkpt lat="50.52909" lon="3.71261">
        <ele>61.18</ele>
        <time>2016-11-07T15:25:07Z</time>
      </trkpt>
      <trkpt lat="50.52912" lon="3.71247">
        <ele>61.18</ele>
        <time>2016-11-07T15:25:14Z</time>
      </trkpt>
      <trkpt lat="50.52916" lon="3.71226">
        <ele>62.14</ele>
        <time>2016-11-07T15:25:26Z</time>
      </trkpt>
      <trkpt lat="50.52925" lon="3.71201">
        <ele>62.14</ele>
        <time>2016-11-07T15:25:40Z</time>
      </trkpt>
      <trkpt lat="50.52929" lon="3.7119">
        <ele>62.14</ele>
        <time>2016-11-07T15:25:46Z</time>
      </trkpt>
      <trkpt lat="50.52936" lon="3.71158">
        <ele>62.14</ele>
        <time>2016-11-07T15:26:02Z</time>
      </trkpt>
      <trkpt lat="50.52944" lon="3.71127">
        <ele>62.14</ele>
        <time>2016-11-07T15:26:18Z</time>
      </trkpt>
      <trkpt lat="50.5295" lon="3.71101">
        <ele>62.14</ele>
        <time>2016-11-07T15:26:32Z</time>
      </trkpt>
      <trkpt lat="50.52954" lon="3.71079">
        <ele>62.14</ele>
        <time>2016-11-07T15:26:45Z</time>
      </trkpt>
      <trkpt lat="50.52957" lon="3.71067">
        <ele>62.14</ele>
        <time>2016-11-07T15:26:52Z</time>
      </trkpt>
      <trkpt lat="50.52958" lon="3.71046">
        <ele>62.14</ele>
        <time>2016-11-07T15:27:04Z</time>
      </trkpt>
      <trkpt lat="50.52962" lon="3.71019">
        <ele>62.14</ele>
        <time>2016-11-07T15:27:20Z</time>
      </trkpt>
      <trkpt lat="50.52964" lon="3.71003">
        <ele>62.62</ele>
        <time>2016-11-07T15:27:32Z</time>
      </trkpt>
      <trkpt lat="50.52965" lon="3.70981">
        <ele>62.62</ele>
        <time>2016-11-07T15:27:46Z</time>
      </trkpt>
      <trkpt lat="50.52966" lon="3.70959">
        <ele>62.62</ele>
        <time>2016-11-07T15:27:59Z</time>
      </trkpt>
      <trkpt lat="50.52967" lon="3.70935">
        <ele>62.62</ele>
        <time>2016-11-07T15:28:11Z</time>
      </trkpt>
      <trkpt lat="50.52968" lon="3.70908">
        <ele>62.62</ele>
        <time>2016-11-07T15:28:26Z</time>
      </trkpt>
      <trkpt lat="50.52967" lon="3.70877">
        <ele>62.62</ele>
        <time>2016-11-07T15:28:42Z</time>
      </trkpt>
      <trkpt lat="50.52965" lon="3.70864">
        <ele>62.62</ele>
        <time>2016-11-07T15:28:50Z</time>
      </trkpt>
      <trkpt lat="50.52964" lon="3.7086">
        <ele>62.62</ele>
        <time>2016-11-07T15:28:52Z</time>
      </trkpt>
      <trkpt lat="50.52962" lon="3.70838">
        <ele>62.62</ele>
        <time>2016-11-07T15:29:06Z</time>
      </trkpt>
      <trkpt lat="50.52959" lon="3.70812">
        <ele>62.62</ele>
        <time>2016-11-07T15:29:19Z</time>
      </trkpt>
      <trkpt lat="50.52954" lon="3.70784">
        <ele>62.62</ele>
        <time>2016-11-07T15:29:35Z</time>
      </trkpt>
      <trkpt lat="50.52951" lon="3.7076">
        <ele>62.62</ele>
        <time>2016-11-07T15:29:49Z</time>
      </trkpt>
      <trkpt lat="50.5295" lon="3.70733">
        <ele>62.62</ele>
        <time>2016-11-07T15:30:04Z</time>
      </trkpt>
      <trkpt lat="50.52949" lon="3.7073">
        <ele>62.62</ele>
        <time>2016-11-07T15:30:06Z</time>
      </trkpt>
      <trkpt lat="50.52947" lon="3.70703">
        <ele>62.62</ele>
        <time>2016-11-07T15:30:21Z</time>
      </trkpt>
      <trkpt lat="50.52946" lon="3.70693">
        <ele>62.62</ele>
        <time>2016-11-07T15:30:26Z</time>
      </trkpt>
      <trkpt lat="50.52945" lon="3.70688">
        <ele>62.62</ele>
        <time>2016-11-07T15:30:28Z</time>
      </trkpt>
      <trkpt lat="50.52944" lon="3.70683">
        <ele>62.62</ele>
        <time>2016-11-07T15:30:31Z</time>
      </trkpt>
      <trkpt lat="50.52944" lon="3.70678">
        <ele>62.62</ele>
        <time>2016-11-07T15:30:34Z</time>
      </trkpt>
      <trkpt lat="50.52942" lon="3.70652">
        <ele>63.1</ele>
        <time>2016-11-07T15:30:50Z</time>
      </trkpt>
      <trkpt lat="50.5294" lon="3.70644">
        <ele>63.1</ele>
        <time>2016-11-07T15:30:56Z</time>
      </trkpt>
      <trkpt lat="50.52938" lon="3.70613">
        <ele>63.1</ele>
        <time>2016-11-07T15:31:14Z</time>
      </trkpt>
      <trkpt lat="50.52936" lon="3.70603">
        <ele>63.1</ele>
        <time>2016-11-07T15:31:21Z</time>
      </trkpt>
      <trkpt lat="50.52932" lon="3.70584">
        <ele>63.1</ele>
        <time>2016-11-07T15:31:32Z</time>
      </trkpt>
      <trkpt lat="50.52929" lon="3.70551">
        <ele>63.1</ele>
        <time>2016-11-07T15:31:47Z</time>
      </trkpt>
      <trkpt lat="50.52925" lon="3.70534">
        <ele>63.1</ele>
        <time>2016-11-07T15:32:00Z</time>
      </trkpt>
      <trkpt lat="50.52925" lon="3.70524">
        <ele>63.1</ele>
        <time>2016-11-07T15:32:06Z</time>
      </trkpt>
      <trkpt lat="50.52919" lon="3.70496">
        <ele>63.1</ele>
        <time>2016-11-07T15:32:21Z</time>
      </trkpt>
      <trkpt lat="50.52919" lon="3.70491">
        <ele>63.1</ele>
        <time>2016-11-07T15:32:24Z</time>
      </trkpt>
      <trkpt lat="50.52917" lon="3.70482">
        <ele>63.1</ele>
        <time>2016-11-07T15:32:29Z</time>
      </trkpt>
      <trkpt lat="50.52919" lon="3.70474">
        <ele>63.58</ele>
        <time>2016-11-07T15:32:34Z</time>
      </trkpt>
      <trkpt lat="50.52916" lon="3.70447">
        <ele>63.58</ele>
        <time>2016-11-07T15:32:51Z</time>
      </trkpt>
      <trkpt lat="50.52912" lon="3.70415">
        <ele>63.58</ele>
        <time>2016-11-07T15:33:06Z</time>
      </trkpt>
      <trkpt lat="50.52914" lon="3.70398">
        <ele>63.58</ele>
        <time>2016-11-07T15:33:17Z</time>
      </trkpt>
      <trkpt lat="50.52916" lon="3.70387">
        <ele>63.58</ele>
        <time>2016-11-07T15:33:22Z</time>
      </trkpt>
      <trkpt lat="50.52918" lon="3.70369">
        <ele>63.58</ele>
        <time>2016-11-07T15:33:34Z</time>
      </trkpt>
      <trkpt lat="50.5292" lon="3.70352">
        <ele>63.58</ele>
        <time>2016-11-07T15:33:44Z</time>
      </trkpt>
      <trkpt lat="50.5292" lon="3.70341">
        <ele>63.58</ele>
        <time>2016-11-07T15:33:50Z</time>
      </trkpt>
      <trkpt lat="50.5292" lon="3.70318">
        <ele>63.58</ele>
        <time>2016-11-07T15:34:03Z</time>
      </trkpt>
      <trkpt lat="50.52917" lon="3.703">
        <ele>63.58</ele>
        <time>2016-11-07T15:34:14Z</time>
      </trkpt>
      <trkpt lat="50.52897" lon="3.70298">
        <ele>63.58</ele>
        <time>2016-11-07T15:34:32Z</time>
      </trkpt>
      <trkpt lat="50.52895" lon="3.70298">
        <ele>63.58</ele>
        <time>2016-11-07T15:34:33Z</time>
      </trkpt>
      <trkpt lat="50.52888" lon="3.70297">
        <ele>63.58</ele>
        <time>2016-11-07T15:34:39Z</time>
      </trkpt>
      <trkpt lat="50.52882" lon="3.70295">
        <ele>63.58</ele>
        <time>2016-11-07T15:34:43Z</time>
      </trkpt>
      <trkpt lat="50.52866" lon="3.70276">
        <ele>63.58</ele>
        <time>2016-11-07T15:34:59Z</time>
      </trkpt>
      <trkpt lat="50.52854" lon="3.70261">
        <ele>63.58</ele>
        <time>2016-11-07T15:35:12Z</time>
      </trkpt>
      <trkpt lat="50.52837" lon="3.70246">
        <ele>64.07</ele>
        <time>2016-11-07T15:35:28Z</time>
      </trkpt>
      <trkpt lat="50.52819" lon="3.70227">
        <ele>62.62</ele>
        <time>2016-11-07T15:35:46Z</time>
      </trkpt>
      <trkpt lat="50.52804" lon="3.70209">
        <ele>62.62</ele>
        <time>2016-11-07T15:36:03Z</time>
      </trkpt>
      <trkpt lat="50.52786" lon="3.7019">
        <ele>63.1</ele>
        <time>2016-11-07T15:36:20Z</time>
      </trkpt>
      <trkpt lat="50.52769" lon="3.70173">
        <ele>62.62</ele>
        <time>2016-11-07T15:36:35Z</time>
      </trkpt>
      <trkpt lat="50.52753" lon="3.70155">
        <ele>62.62</ele>
        <time>2016-11-07T15:36:52Z</time>
      </trkpt>
      <trkpt lat="50.52737" lon="3.70138">
        <ele>62.62</ele>
        <time>2016-11-07T15:37:08Z</time>
      </trkpt>
      <trkpt lat="50.52723" lon="3.70122">
        <ele>62.62</ele>
        <time>2016-11-07T15:37:23Z</time>
      </trkpt>
      <trkpt lat="50.52703" lon="3.701">
        <ele>62.62</ele>
        <time>2016-11-07T15:37:42Z</time>
      </trkpt>
      <trkpt lat="50.52702" lon="3.70099">
        <ele>62.62</ele>
        <time>2016-11-07T15:37:43Z</time>
      </trkpt>
      <trkpt lat="50.5269" lon="3.70086">
        <ele>62.62</ele>
        <time>2016-11-07T15:37:53Z</time>
      </trkpt>
      <trkpt lat="50.52685" lon="3.70078">
        <ele>62.62</ele>
        <time>2016-11-07T15:37:59Z</time>
      </trkpt>
      <trkpt lat="50.5267" lon="3.70062">
        <ele>62.62</ele>
        <time>2016-11-07T15:38:14Z</time>
      </trkpt>
      <trkpt lat="50.52657" lon="3.70048">
        <ele>62.62</ele>
        <time>2016-11-07T15:38:27Z</time>
      </trkpt>
      <trkpt lat="50.52641" lon="3.7003">
        <ele>62.62</ele>
        <time>2016-11-07T15:38:44Z</time>
      </trkpt>
      <trkpt lat="50.52625" lon="3.70012">
        <ele>62.62</ele>
        <time>2016-11-07T15:39:02Z</time>
      </trkpt>
      <trkpt lat="50.52606" lon="3.69994">
        <ele>62.62</ele>
        <time>2016-11-07T15:39:19Z</time>
      </trkpt>
      <trkpt lat="50.52586" lon="3.69971">
        <ele>62.62</ele>
        <time>2016-11-07T15:39:38Z</time>
      </trkpt>
      <trkpt lat="50.52578" lon="3.69948">
        <ele>62.62</ele>
        <time>2016-11-07T15:39:53Z</time>
      </trkpt>
      <trkpt lat="50.52589" lon="3.69927">
        <ele>62.62</ele>
        <time>2016-11-07T15:40:07Z</time>
      </trkpt>
      <trkpt lat="50.52601" lon="3.69908">
        <ele>62.62</ele>
        <time>2016-11-07T15:40:21Z</time>
      </trkpt>
      <trkpt lat="50.52618" lon="3.69889">
        <ele>62.62</ele>
        <time>2016-11-07T15:40:37Z</time>
      </trkpt>
      <trkpt lat="50.52633" lon="3.69866">
        <ele>62.62</ele>
        <time>2016-11-07T15:40:55Z</time>
      </trkpt>
      <trkpt lat="50.52647" lon="3.69847">
        <ele>62.62</ele>
        <time>2016-11-07T15:41:10Z</time>
      </trkpt>
      <trkpt lat="50.52651" lon="3.69842">
        <ele>62.62</ele>
        <time>2016-11-07T15:41:15Z</time>
      </trkpt>
      <trkpt lat="50.52664" lon="3.69827">
        <ele>62.62</ele>
        <time>2016-11-07T15:41:29Z</time>
      </trkpt>
      <trkpt lat="50.52683" lon="3.698">
        <ele>62.62</ele>
        <time>2016-11-07T15:41:48Z</time>
      </trkpt>
      <trkpt lat="50.52696" lon="3.69785">
        <ele>62.62</ele>
        <time>2016-11-07T15:42:02Z</time>
      </trkpt>
      <trkpt lat="50.52702" lon="3.69776">
        <ele>62.62</ele>
        <time>2016-11-07T15:42:08Z</time>
      </trkpt>
      <trkpt lat="50.52717" lon="3.69758">
        <ele>62.62</ele>
        <time>2016-11-07T15:42:23Z</time>
      </trkpt>
      <trkpt lat="50.52725" lon="3.6975">
        <ele>62.62</ele>
        <time>2016-11-07T15:42:31Z</time>
      </trkpt>
      <trkpt lat="50.52735" lon="3.69738">
        <ele>62.62</ele>
        <time>2016-11-07T15:42:40Z</time>
      </trkpt>
      <trkpt lat="50.5274" lon="3.69734">
        <ele>62.62</ele>
        <time>2016-11-07T15:42:45Z</time>
      </trkpt>
      <trkpt lat="50.52745" lon="3.69729">
        <ele>62.62</ele>
        <time>2016-11-07T15:42:50Z</time>
      </trkpt>
      <trkpt lat="50.52749" lon="3.69724">
        <ele>62.62</ele>
        <time>2016-11-07T15:42:54Z</time>
      </trkpt>
      <trkpt lat="50.52755" lon="3.69716">
        <ele>63.58</ele>
        <time>2016-11-07T15:43:00Z</time>
      </trkpt>
      <trkpt lat="50.52767" lon="3.69698">
        <ele>63.58</ele>
        <time>2016-11-07T15:43:14Z</time>
      </trkpt>
      <trkpt lat="50.5278" lon="3.69687">
        <ele>64.07</ele>
        <time>2016-11-07T15:43:26Z</time>
      </trkpt>
      <trkpt lat="50.52782" lon="3.69685">
        <ele>64.07</ele>
        <time>2016-11-07T15:43:28Z</time>
      </trkpt>
      <trkpt lat="50.52785" lon="3.69684">
        <ele>64.07</ele>
        <time>2016-11-07T15:43:31Z</time>
      </trkpt>
      <trkpt lat="50.52799" lon="3.69662">
        <ele>64.07</ele>
        <time>2016-11-07T15:43:47Z</time>
      </trkpt>
      <trkpt lat="50.52801" lon="3.69657">
        <ele>64.55</ele>
        <time>2016-11-07T15:43:51Z</time>
      </trkpt>
      <trkpt lat="50.52808" lon="3.6965">
        <ele>64.55</ele>
        <time>2016-11-07T15:43:57Z</time>
      </trkpt>
      <trkpt lat="50.52816" lon="3.69642">
        <ele>64.55</ele>
        <time>2016-11-07T15:44:05Z</time>
      </trkpt>
      <trkpt lat="50.52819" lon="3.69636">
        <ele>64.55</ele>
        <time>2016-11-07T15:44:09Z</time>
      </trkpt>
      <trkpt lat="50.52833" lon="3.69621">
        <ele>64.55</ele>
        <time>2016-11-07T15:44:23Z</time>
      </trkpt>
      <trkpt lat="50.52846" lon="3.69603">
        <ele>64.55</ele>
        <time>2016-11-07T15:44:38Z</time>
      </trkpt>
      <trkpt lat="50.52858" lon="3.69587">
        <ele>64.55</ele>
        <time>2016-11-07T15:44:51Z</time>
      </trkpt>
      <trkpt lat="50.5287" lon="3.69563">
        <ele>63.58</ele>
        <time>2016-11-07T15:45:07Z</time>
      </trkpt>
      <trkpt lat="50.52876" lon="3.69544">
        <ele>63.58</ele>
        <time>2016-11-07T15:45:19Z</time>
      </trkpt>
      <trkpt lat="50.52887" lon="3.69512">
        <ele>63.1</ele>
        <time>2016-11-07T15:45:36Z</time>
      </trkpt>
      <trkpt lat="50.52896" lon="3.69485">
        <ele>62.62</ele>
        <time>2016-11-07T15:45:51Z</time>
      </trkpt>
      <trkpt lat="50.52902" lon="3.69465">
        <ele>62.62</ele>
        <time>2016-11-07T15:46:04Z</time>
      </trkpt>
      <trkpt lat="50.52904" lon="3.69458">
        <ele>62.62</ele>
        <time>2016-11-07T15:46:09Z</time>
      </trkpt>
      <trkpt lat="50.5291" lon="3.69426">
        <ele>62.14</ele>
        <time>2016-11-07T15:46:26Z</time>
      </trkpt>
      <trkpt lat="50.52914" lon="3.69414">
        <ele>62.14</ele>
        <time>2016-11-07T15:46:33Z</time>
      </trkpt>
      <trkpt lat="50.52917" lon="3.69406">
        <ele>62.14</ele>
        <time>2016-11-07T15:46:37Z</time>
      </trkpt>
      <trkpt lat="50.52924" lon="3.69378">
        <ele>62.14</ele>
        <time>2016-11-07T15:46:53Z</time>
      </trkpt>
      <trkpt lat="50.52925" lon="3.69372">
        <ele>62.14</ele>
        <time>2016-11-07T15:46:56Z</time>
      </trkpt>
      <trkpt lat="50.52932" lon="3.69363">
        <ele>62.14</ele>
        <time>2016-11-07T15:47:02Z</time>
      </trkpt>
      <trkpt lat="50.52932" lon="3.69357">
        <ele>62.14</ele>
        <time>2016-11-07T15:47:05Z</time>
      </trkpt>
      <trkpt lat="50.52935" lon="3.69342">
        <ele>62.14</ele>
        <time>2016-11-07T15:47:12Z</time>
      </trkpt>
      <trkpt lat="50.52937" lon="3.69337">
        <ele>62.14</ele>
        <time>2016-11-07T15:47:15Z</time>
      </trkpt>
      <trkpt lat="50.52943" lon="3.69313">
        <ele>62.14</ele>
        <time>2016-11-07T15:47:28Z</time>
      </trkpt>
      <trkpt lat="50.52945" lon="3.69301">
        <ele>62.14</ele>
        <time>2016-11-07T15:47:33Z</time>
      </trkpt>
      <trkpt lat="50.52951" lon="3.69288">
        <ele>62.14</ele>
        <time>2016-11-07T15:47:40Z</time>
      </trkpt>
      <trkpt lat="50.52951" lon="3.69285">
        <ele>62.14</ele>
        <time>2016-11-07T15:47:41Z</time>
      </trkpt>
      <trkpt lat="50.52958" lon="3.69261">
        <ele>62.14</ele>
        <time>2016-11-07T15:47:52Z</time>
      </trkpt>
      <trkpt lat="50.52959" lon="3.6925">
        <ele>63.1</ele>
        <time>2016-11-07T15:48:01Z</time>
      </trkpt>
      <trkpt lat="50.52957" lon="3.69244">
        <ele>63.1</ele>
        <time>2016-11-07T15:48:05Z</time>
      </trkpt>
      <trkpt lat="50.52954" lon="3.69231">
        <ele>63.1</ele>
        <time>2016-11-07T15:48:11Z</time>
      </trkpt>
      <trkpt lat="50.52953" lon="3.6923">
        <ele>63.1</ele>
        <time>2016-11-07T15:48:12Z</time>
      </trkpt>
      <trkpt lat="50.52952" lon="3.69222">
        <ele>63.1</ele>
        <time>2016-11-07T15:48:24Z</time>
      </trkpt>
      <trkpt lat="50.52952" lon="3.69215">
        <ele>63.1</ele>
        <time>2016-11-07T15:48:30Z</time>
      </trkpt>
      <trkpt lat="50.52954" lon="3.69206">
        <ele>63.1</ele>
        <time>2016-11-07T15:48:41Z</time>
      </trkpt>
      <trkpt lat="50.52954" lon="3.69201">
        <ele>63.1</ele>
        <time>2016-11-07T15:48:49Z</time>
      </trkpt>
      <trkpt lat="50.52949" lon="3.69196">
        <ele>63.1</ele>
        <time>2016-11-07T15:49:02Z</time>
      </trkpt>
      <trkpt lat="50.52947" lon="3.69198">
        <ele>63.1</ele>
        <time>2016-11-07T15:49:13Z</time>
      </trkpt>
      <trkpt lat="50.52945" lon="3.69197">
        <ele>62.62</ele>
        <time>2016-11-07T15:49:25Z</time>
      </trkpt>
      <trkpt lat="50.52944" lon="3.69197">
        <ele>62.62</ele>
        <time>2016-11-07T15:49:26Z</time>
      </trkpt>
      <trkpt lat="50.52943" lon="3.69197">
        <ele>62.62</ele>
        <time>2016-11-07T15:49:27Z</time>
      </trkpt>
      <trkpt lat="50.52926" lon="3.69198">
        <ele>61.66</ele>
        <time>2016-11-07T15:49:43Z</time>
      </trkpt>
      <trkpt lat="50.52924" lon="3.69197">
        <ele>61.66</ele>
        <time>2016-11-07T15:50:01Z</time>
      </trkpt>
      <trkpt lat="50.52925" lon="3.69196">
        <ele>54.45</ele>
        <time>2016-11-07T15:50:07Z</time>
      </trkpt>
      <trkpt lat="50.52924" lon="3.69196">
        <ele>68.87</ele>
        <time>2016-11-07T15:50:08Z</time>
      </trkpt>
      <trkpt lat="50.52924" lon="3.69196">
        <ele>62.14</ele>
        <time>2016-11-07T15:50:09Z</time>
      </trkpt>
      <trkpt lat="50.52923" lon="3.69197">
        <ele>61.66</ele>
        <time>2016-11-07T15:50:26Z</time>
      </trkpt>
      <trkpt lat="50.52921" lon="3.69198">
        <ele>61.66</ele>
        <time>2016-11-07T15:50:48Z</time>
      </trkpt>
      <trkpt lat="50.52918" lon="3.692">
        <ele>62.14</ele>
        <time>2016-11-07T15:51:03Z</time>
      </trkpt>
      <trkpt lat="50.52918" lon="3.692">
        <ele>62.14</ele>
        <time>2016-11-07T15:51:04Z</time>
      </trkpt>
      <trkpt lat="50.5292" lon="3.69198">
        <ele>62.14</ele>
        <time>2016-11-07T15:51:23Z</time>
      </trkpt>
    </trkseg>
  </trk>
</gpx>